<?xml version="1.0" encoding="UTF-8" standalone="no" ?>
<gpx xmlns="http://www.topografix.com/GPX/1/1" xmlns:xsi="http://www.w3.org/2001/XMLSchema-instance" xsi:schemaLocation="http://www.topografix.com/GPX/1/1 http://www.topografix.com/GPX/1/1/gpx.xsd" version="1.1" creator="VisuGPX - https://www.visugpx.com">
  <metadata>
    <name>Gréoux - Valensole boucle HW 2019 </name>
    <desc><![CDATA[Boucle Gréoux - Valensole.
Trace réalisée le vendredi 10 mai 2019 sous un beau soleil.]]></desc>
  </metadata>
  <trk>
    <name><![CDATA[CURRENT TRACK- 10 MAY Valensole Boucle HW 2019]]></name>
    <trkseg>
      <trkpt lat="43.75109" lon="5.8976">
        <ele>302</ele>
        <time>2019-05-08T16:15:55Z</time>
      </trkpt>
      <trkpt lat="43.75108" lon="5.89757">
        <ele>302</ele>
        <time>2019-05-08T16:16:30Z</time>
      </trkpt>
      <trkpt lat="43.75106" lon="5.89756">
        <ele>321</ele>
        <time>2019-05-10T07:20:56Z</time>
      </trkpt>
      <trkpt lat="43.75102" lon="5.89746">
        <ele>305</ele>
        <time>2019-05-10T07:34:27Z</time>
      </trkpt>
      <trkpt lat="43.75102" lon="5.89749">
        <ele>305</ele>
        <time>2019-05-10T07:34:34Z</time>
      </trkpt>
      <trkpt lat="43.75115" lon="5.89756">
        <ele>305</ele>
        <time>2019-05-10T10:20:01Z</time>
      </trkpt>
      <trkpt lat="43.75118" lon="5.89709">
        <ele>305</ele>
        <time>2019-05-10T10:39:53Z</time>
      </trkpt>
      <trkpt lat="43.7513" lon="5.89656">
        <ele>305</ele>
        <time>2019-05-10T10:40:05Z</time>
      </trkpt>
      <trkpt lat="43.75155" lon="5.89618">
        <ele>305</ele>
        <time>2019-05-10T10:40:18Z</time>
      </trkpt>
      <trkpt lat="43.75147" lon="5.89552">
        <ele>305</ele>
        <time>2019-05-10T10:40:30Z</time>
      </trkpt>
      <trkpt lat="43.75151" lon="5.89492">
        <ele>305</ele>
        <time>2019-05-10T10:40:42Z</time>
      </trkpt>
      <trkpt lat="43.75193" lon="5.89467">
        <ele>305</ele>
        <time>2019-05-10T10:40:55Z</time>
      </trkpt>
      <trkpt lat="43.75192" lon="5.89399">
        <ele>305</ele>
        <time>2019-05-10T10:41:08Z</time>
      </trkpt>
      <trkpt lat="43.75219" lon="5.89353">
        <ele>305</ele>
        <time>2019-05-10T10:41:26Z</time>
      </trkpt>
      <trkpt lat="43.75253" lon="5.89306">
        <ele>305</ele>
        <time>2019-05-10T10:41:39Z</time>
      </trkpt>
      <trkpt lat="43.75285" lon="5.89258">
        <ele>305</ele>
        <time>2019-05-10T10:41:48Z</time>
      </trkpt>
      <trkpt lat="43.75308" lon="5.892">
        <ele>305</ele>
        <time>2019-05-10T10:41:57Z</time>
      </trkpt>
      <trkpt lat="43.75316" lon="5.89138">
        <ele>305</ele>
        <time>2019-05-10T10:42:07Z</time>
      </trkpt>
      <trkpt lat="43.75324" lon="5.89074">
        <ele>309</ele>
        <time>2019-05-10T10:42:22Z</time>
      </trkpt>
      <trkpt lat="43.75337" lon="5.89012">
        <ele>311</ele>
        <time>2019-05-10T10:42:39Z</time>
      </trkpt>
      <trkpt lat="43.75376" lon="5.88993">
        <ele>312</ele>
        <time>2019-05-10T10:42:53Z</time>
      </trkpt>
      <trkpt lat="43.75422" lon="5.88989">
        <ele>312</ele>
        <time>2019-05-10T10:43:04Z</time>
      </trkpt>
      <trkpt lat="43.75432" lon="5.89047">
        <ele>310</ele>
        <time>2019-05-10T10:43:23Z</time>
      </trkpt>
      <trkpt lat="43.75432" lon="5.89111">
        <ele>307</ele>
        <time>2019-05-10T10:43:38Z</time>
      </trkpt>
      <trkpt lat="43.75403" lon="5.89165">
        <ele>304</ele>
        <time>2019-05-10T10:43:48Z</time>
      </trkpt>
      <trkpt lat="43.75399" lon="5.89229">
        <ele>304</ele>
        <time>2019-05-10T10:44:05Z</time>
      </trkpt>
      <trkpt lat="43.754" lon="5.89298">
        <ele>303</ele>
        <time>2019-05-10T10:44:16Z</time>
      </trkpt>
      <trkpt lat="43.75397" lon="5.89366">
        <ele>303</ele>
        <time>2019-05-10T10:44:24Z</time>
      </trkpt>
      <trkpt lat="43.75392" lon="5.89431">
        <ele>303</ele>
        <time>2019-05-10T10:44:32Z</time>
      </trkpt>
      <trkpt lat="43.75388" lon="5.89495">
        <ele>304</ele>
        <time>2019-05-10T10:44:41Z</time>
      </trkpt>
      <trkpt lat="43.75381" lon="5.89562">
        <ele>304</ele>
        <time>2019-05-10T10:44:50Z</time>
      </trkpt>
      <trkpt lat="43.75377" lon="5.89626">
        <ele>304</ele>
        <time>2019-05-10T10:44:59Z</time>
      </trkpt>
      <trkpt lat="43.75374" lon="5.89692">
        <ele>304</ele>
        <time>2019-05-10T10:45:09Z</time>
      </trkpt>
      <trkpt lat="43.75368" lon="5.89756">
        <ele>305</ele>
        <time>2019-05-10T10:45:18Z</time>
      </trkpt>
      <trkpt lat="43.75365" lon="5.89823">
        <ele>305</ele>
        <time>2019-05-10T10:45:27Z</time>
      </trkpt>
      <trkpt lat="43.75365" lon="5.89885">
        <ele>305</ele>
        <time>2019-05-10T10:45:35Z</time>
      </trkpt>
      <trkpt lat="43.75369" lon="5.8995">
        <ele>305</ele>
        <time>2019-05-10T10:45:45Z</time>
      </trkpt>
      <trkpt lat="43.75381" lon="5.90013">
        <ele>307</ele>
        <time>2019-05-10T10:45:58Z</time>
      </trkpt>
      <trkpt lat="43.75399" lon="5.90076">
        <ele>307</ele>
        <time>2019-05-10T10:46:09Z</time>
      </trkpt>
      <trkpt lat="43.75405" lon="5.90142">
        <ele>307</ele>
        <time>2019-05-10T10:46:19Z</time>
      </trkpt>
      <trkpt lat="43.75416" lon="5.90206">
        <ele>308</ele>
        <time>2019-05-10T10:46:30Z</time>
      </trkpt>
      <trkpt lat="43.75434" lon="5.90267">
        <ele>308</ele>
        <time>2019-05-10T10:46:39Z</time>
      </trkpt>
      <trkpt lat="43.75442" lon="5.90336">
        <ele>306</ele>
        <time>2019-05-10T10:46:47Z</time>
      </trkpt>
      <trkpt lat="43.75446" lon="5.90401">
        <ele>305</ele>
        <time>2019-05-10T10:46:57Z</time>
      </trkpt>
      <trkpt lat="43.75449" lon="5.90462">
        <ele>305</ele>
        <time>2019-05-10T10:47:09Z</time>
      </trkpt>
      <trkpt lat="43.75454" lon="5.90527">
        <ele>306</ele>
        <time>2019-05-10T10:47:21Z</time>
      </trkpt>
      <trkpt lat="43.75444" lon="5.90589">
        <ele>307</ele>
        <time>2019-05-10T10:47:31Z</time>
      </trkpt>
      <trkpt lat="43.7544" lon="5.90654">
        <ele>307</ele>
        <time>2019-05-10T10:47:43Z</time>
      </trkpt>
      <trkpt lat="43.75438" lon="5.90721">
        <ele>307</ele>
        <time>2019-05-10T10:47:54Z</time>
      </trkpt>
      <trkpt lat="43.75432" lon="5.90784">
        <ele>307</ele>
        <time>2019-05-10T10:48:06Z</time>
      </trkpt>
      <trkpt lat="43.75476" lon="5.90798">
        <ele>308</ele>
        <time>2019-05-10T10:48:23Z</time>
      </trkpt>
      <trkpt lat="43.75522" lon="5.90809">
        <ele>310</ele>
        <time>2019-05-10T10:48:38Z</time>
      </trkpt>
      <trkpt lat="43.75567" lon="5.90823">
        <ele>312</ele>
        <time>2019-05-10T10:48:54Z</time>
      </trkpt>
      <trkpt lat="43.7561" lon="5.90845">
        <ele>314</ele>
        <time>2019-05-10T10:49:13Z</time>
      </trkpt>
      <trkpt lat="43.75655" lon="5.90856">
        <ele>318</ele>
        <time>2019-05-10T10:49:35Z</time>
      </trkpt>
      <trkpt lat="43.75701" lon="5.90835">
        <ele>322</ele>
        <time>2019-05-10T10:49:57Z</time>
      </trkpt>
      <trkpt lat="43.75743" lon="5.90816">
        <ele>324</ele>
        <time>2019-05-10T10:50:15Z</time>
      </trkpt>
      <trkpt lat="43.75753" lon="5.90753">
        <ele>327</ele>
        <time>2019-05-10T10:50:39Z</time>
      </trkpt>
      <trkpt lat="43.75771" lon="5.90697">
        <ele>331</ele>
        <time>2019-05-10T10:51:03Z</time>
      </trkpt>
      <trkpt lat="43.75804" lon="5.90687">
        <ele>334</ele>
        <time>2019-05-10T10:51:33Z</time>
      </trkpt>
      <trkpt lat="43.7585" lon="5.90659">
        <ele>341</ele>
        <time>2019-05-10T10:52:04Z</time>
      </trkpt>
      <trkpt lat="43.75885" lon="5.90613">
        <ele>348</ele>
        <time>2019-05-10T10:52:33Z</time>
      </trkpt>
      <trkpt lat="43.75914" lon="5.90563">
        <ele>351</ele>
        <time>2019-05-10T10:52:55Z</time>
      </trkpt>
      <trkpt lat="43.75943" lon="5.90514">
        <ele>351</ele>
        <time>2019-05-10T10:53:13Z</time>
      </trkpt>
      <trkpt lat="43.75966" lon="5.90458">
        <ele>355</ele>
        <time>2019-05-10T10:53:36Z</time>
      </trkpt>
      <trkpt lat="43.75986" lon="5.904">
        <ele>358</ele>
        <time>2019-05-10T10:53:59Z</time>
      </trkpt>
      <trkpt lat="43.76004" lon="5.90343">
        <ele>358</ele>
        <time>2019-05-10T10:54:20Z</time>
      </trkpt>
      <trkpt lat="43.76035" lon="5.90299">
        <ele>364</ele>
        <time>2019-05-10T10:54:43Z</time>
      </trkpt>
      <trkpt lat="43.76064" lon="5.9025">
        <ele>367</ele>
        <time>2019-05-10T10:55:03Z</time>
      </trkpt>
      <trkpt lat="43.76078" lon="5.90191">
        <ele>368</ele>
        <time>2019-05-10T10:55:24Z</time>
      </trkpt>
      <trkpt lat="43.76109" lon="5.90159">
        <ele>370</ele>
        <time>2019-05-10T10:55:47Z</time>
      </trkpt>
      <trkpt lat="43.76156" lon="5.9016">
        <ele>373</ele>
        <time>2019-05-10T10:56:08Z</time>
      </trkpt>
      <trkpt lat="43.76187" lon="5.90113">
        <ele>374</ele>
        <time>2019-05-10T10:56:27Z</time>
      </trkpt>
      <trkpt lat="43.76221" lon="5.90073">
        <ele>377</ele>
        <time>2019-05-10T10:56:47Z</time>
      </trkpt>
      <trkpt lat="43.76265" lon="5.90046">
        <ele>377</ele>
        <time>2019-05-10T10:57:04Z</time>
      </trkpt>
      <trkpt lat="43.7631" lon="5.90035">
        <ele>377</ele>
        <time>2019-05-10T10:57:15Z</time>
      </trkpt>
      <trkpt lat="43.76352" lon="5.90013">
        <ele>377</ele>
        <time>2019-05-10T10:57:28Z</time>
      </trkpt>
      <trkpt lat="43.76397" lon="5.89997">
        <ele>378</ele>
        <time>2019-05-10T10:57:43Z</time>
      </trkpt>
      <trkpt lat="43.76424" lon="5.89952">
        <ele>377</ele>
        <time>2019-05-10T10:57:55Z</time>
      </trkpt>
      <trkpt lat="43.76462" lon="5.89917">
        <ele>375</ele>
        <time>2019-05-10T10:58:04Z</time>
      </trkpt>
      <trkpt lat="43.76491" lon="5.89874">
        <ele>377</ele>
        <time>2019-05-10T10:58:19Z</time>
      </trkpt>
      <trkpt lat="43.7652" lon="5.89825">
        <ele>376</ele>
        <time>2019-05-10T10:58:30Z</time>
      </trkpt>
      <trkpt lat="43.76548" lon="5.89771">
        <ele>374</ele>
        <time>2019-05-10T10:58:38Z</time>
      </trkpt>
      <trkpt lat="43.76578" lon="5.89722">
        <ele>372</ele>
        <time>2019-05-10T10:58:47Z</time>
      </trkpt>
      <trkpt lat="43.7661" lon="5.89698">
        <ele>368</ele>
        <time>2019-05-10T10:59:02Z</time>
      </trkpt>
      <trkpt lat="43.76606" lon="5.89772">
        <ele>366</ele>
        <time>2019-05-10T10:59:16Z</time>
      </trkpt>
      <trkpt lat="43.76629" lon="5.8978">
        <ele>360</ele>
        <time>2019-05-10T10:59:32Z</time>
      </trkpt>
      <trkpt lat="43.76672" lon="5.89759">
        <ele>350</ele>
        <time>2019-05-10T11:01:39Z</time>
      </trkpt>
      <trkpt lat="43.76704" lon="5.89805">
        <ele>350</ele>
        <time>2019-05-10T11:01:58Z</time>
      </trkpt>
      <trkpt lat="43.76697" lon="5.89849">
        <ele>350</ele>
        <time>2019-05-10T11:02:23Z</time>
      </trkpt>
      <trkpt lat="43.76664" lon="5.89892">
        <ele>350</ele>
        <time>2019-05-10T11:02:44Z</time>
      </trkpt>
      <trkpt lat="43.76646" lon="5.89949">
        <ele>350</ele>
        <time>2019-05-10T11:03:04Z</time>
      </trkpt>
      <trkpt lat="43.76633" lon="5.90015">
        <ele>350</ele>
        <time>2019-05-10T11:03:24Z</time>
      </trkpt>
      <trkpt lat="43.76631" lon="5.90079">
        <ele>359</ele>
        <time>2019-05-10T11:03:45Z</time>
      </trkpt>
      <trkpt lat="43.76629" lon="5.90142">
        <ele>361</ele>
        <time>2019-05-10T11:05:49Z</time>
      </trkpt>
      <trkpt lat="43.76643" lon="5.90203">
        <ele>361</ele>
        <time>2019-05-10T11:06:08Z</time>
      </trkpt>
      <trkpt lat="43.76662" lon="5.90262">
        <ele>361</ele>
        <time>2019-05-10T11:06:27Z</time>
      </trkpt>
      <trkpt lat="43.76682" lon="5.9032">
        <ele>370</ele>
        <time>2019-05-10T11:06:45Z</time>
      </trkpt>
      <trkpt lat="43.76702" lon="5.90376">
        <ele>371</ele>
        <time>2019-05-10T11:07:05Z</time>
      </trkpt>
      <trkpt lat="43.76735" lon="5.90419">
        <ele>374</ele>
        <time>2019-05-10T11:07:24Z</time>
      </trkpt>
      <trkpt lat="43.76765" lon="5.90463">
        <ele>376</ele>
        <time>2019-05-10T11:07:42Z</time>
      </trkpt>
      <trkpt lat="43.768" lon="5.90508">
        <ele>380</ele>
        <time>2019-05-10T11:08:03Z</time>
      </trkpt>
      <trkpt lat="43.76834" lon="5.90552">
        <ele>383</ele>
        <time>2019-05-10T11:08:21Z</time>
      </trkpt>
      <trkpt lat="43.76871" lon="5.90596">
        <ele>386</ele>
        <time>2019-05-10T11:08:42Z</time>
      </trkpt>
      <trkpt lat="43.76901" lon="5.90643">
        <ele>389</ele>
        <time>2019-05-10T11:09:00Z</time>
      </trkpt>
      <trkpt lat="43.76937" lon="5.90682">
        <ele>391</ele>
        <time>2019-05-10T11:09:19Z</time>
      </trkpt>
      <trkpt lat="43.76982" lon="5.90708">
        <ele>394</ele>
        <time>2019-05-10T11:09:38Z</time>
      </trkpt>
      <trkpt lat="43.77028" lon="5.90715">
        <ele>397</ele>
        <time>2019-05-10T11:09:57Z</time>
      </trkpt>
      <trkpt lat="43.77071" lon="5.90743">
        <ele>400</ele>
        <time>2019-05-10T11:10:14Z</time>
      </trkpt>
      <trkpt lat="43.77095" lon="5.908">
        <ele>402</ele>
        <time>2019-05-10T11:10:36Z</time>
      </trkpt>
      <trkpt lat="43.77096" lon="5.90865">
        <ele>405</ele>
        <time>2019-05-10T11:10:58Z</time>
      </trkpt>
      <trkpt lat="43.77102" lon="5.90932">
        <ele>407</ele>
        <time>2019-05-10T11:11:18Z</time>
      </trkpt>
      <trkpt lat="43.77119" lon="5.90992">
        <ele>410</ele>
        <time>2019-05-10T11:11:40Z</time>
      </trkpt>
      <trkpt lat="43.77144" lon="5.91044">
        <ele>414</ele>
        <time>2019-05-10T11:12:02Z</time>
      </trkpt>
      <trkpt lat="43.77175" lon="5.91093">
        <ele>416</ele>
        <time>2019-05-10T11:12:24Z</time>
      </trkpt>
      <trkpt lat="43.77195" lon="5.91153">
        <ele>419</ele>
        <time>2019-05-10T11:12:48Z</time>
      </trkpt>
      <trkpt lat="43.7721" lon="5.91216">
        <ele>422</ele>
        <time>2019-05-10T11:13:14Z</time>
      </trkpt>
      <trkpt lat="43.77228" lon="5.91276">
        <ele>425</ele>
        <time>2019-05-10T11:13:38Z</time>
      </trkpt>
      <trkpt lat="43.77254" lon="5.91328">
        <ele>427</ele>
        <time>2019-05-10T11:14:02Z</time>
      </trkpt>
      <trkpt lat="43.77293" lon="5.91364">
        <ele>430</ele>
        <time>2019-05-10T11:14:29Z</time>
      </trkpt>
      <trkpt lat="43.77326" lon="5.91404">
        <ele>433</ele>
        <time>2019-05-10T11:14:55Z</time>
      </trkpt>
      <trkpt lat="43.77324" lon="5.91467">
        <ele>436</ele>
        <time>2019-05-10T11:15:22Z</time>
      </trkpt>
      <trkpt lat="43.77318" lon="5.91531">
        <ele>439</ele>
        <time>2019-05-10T11:15:51Z</time>
      </trkpt>
      <trkpt lat="43.77336" lon="5.91588">
        <ele>442</ele>
        <time>2019-05-10T11:16:21Z</time>
      </trkpt>
      <trkpt lat="43.77366" lon="5.91636">
        <ele>444</ele>
        <time>2019-05-10T11:16:52Z</time>
      </trkpt>
      <trkpt lat="43.77394" lon="5.91686">
        <ele>447</ele>
        <time>2019-05-10T11:17:23Z</time>
      </trkpt>
      <trkpt lat="43.77433" lon="5.91717">
        <ele>449</ele>
        <time>2019-05-10T11:17:53Z</time>
      </trkpt>
      <trkpt lat="43.77472" lon="5.91752">
        <ele>451</ele>
        <time>2019-05-10T11:18:24Z</time>
      </trkpt>
      <trkpt lat="43.77491" lon="5.91809">
        <ele>455</ele>
        <time>2019-05-10T11:18:55Z</time>
      </trkpt>
      <trkpt lat="43.77524" lon="5.91854">
        <ele>457</ele>
        <time>2019-05-10T11:19:27Z</time>
      </trkpt>
      <trkpt lat="43.77549" lon="5.91906">
        <ele>460</ele>
        <time>2019-05-10T11:19:59Z</time>
      </trkpt>
      <trkpt lat="43.77555" lon="5.9197">
        <ele>463</ele>
        <time>2019-05-10T11:20:30Z</time>
      </trkpt>
      <trkpt lat="43.77578" lon="5.92032">
        <ele>463</ele>
        <time>2019-05-10T11:23:01Z</time>
      </trkpt>
      <trkpt lat="43.77608" lon="5.92079">
        <ele>463</ele>
        <time>2019-05-10T11:23:32Z</time>
      </trkpt>
      <trkpt lat="43.7763" lon="5.92133">
        <ele>472</ele>
        <time>2019-05-10T11:24:21Z</time>
      </trkpt>
      <trkpt lat="43.77591" lon="5.92105">
        <ele>475</ele>
        <time>2019-05-10T11:25:10Z</time>
      </trkpt>
      <trkpt lat="43.77547" lon="5.92074">
        <ele>478</ele>
        <time>2019-05-10T11:25:40Z</time>
      </trkpt>
      <trkpt lat="43.77508" lon="5.92033">
        <ele>480</ele>
        <time>2019-05-10T11:26:07Z</time>
      </trkpt>
      <trkpt lat="43.77471" lon="5.9199">
        <ele>483</ele>
        <time>2019-05-10T11:26:38Z</time>
      </trkpt>
      <trkpt lat="43.77431" lon="5.91955">
        <ele>486</ele>
        <time>2019-05-10T11:27:09Z</time>
      </trkpt>
      <trkpt lat="43.77403" lon="5.91965">
        <ele>488</ele>
        <time>2019-05-10T11:27:38Z</time>
      </trkpt>
      <trkpt lat="43.77429" lon="5.92016">
        <ele>494</ele>
        <time>2019-05-10T11:28:06Z</time>
      </trkpt>
      <trkpt lat="43.77449" lon="5.92074">
        <ele>498</ele>
        <time>2019-05-10T11:28:35Z</time>
      </trkpt>
      <trkpt lat="43.77441" lon="5.92127">
        <ele>504</ele>
        <time>2019-05-10T11:29:07Z</time>
      </trkpt>
      <trkpt lat="43.77394" lon="5.92131">
        <ele>509</ele>
        <time>2019-05-10T11:29:40Z</time>
      </trkpt>
      <trkpt lat="43.7735" lon="5.92139">
        <ele>512</ele>
        <time>2019-05-10T11:30:08Z</time>
      </trkpt>
      <trkpt lat="43.77305" lon="5.92145">
        <ele>513</ele>
        <time>2019-05-10T11:30:31Z</time>
      </trkpt>
      <trkpt lat="43.77294" lon="5.92184">
        <ele>512</ele>
        <time>2019-05-10T11:30:52Z</time>
      </trkpt>
      <trkpt lat="43.77322" lon="5.92237">
        <ele>512</ele>
        <time>2019-05-10T11:31:04Z</time>
      </trkpt>
      <trkpt lat="43.77349" lon="5.92292">
        <ele>512</ele>
        <time>2019-05-10T11:31:17Z</time>
      </trkpt>
      <trkpt lat="43.77378" lon="5.92343">
        <ele>512</ele>
        <time>2019-05-10T11:31:30Z</time>
      </trkpt>
      <trkpt lat="43.77407" lon="5.92397">
        <ele>512</ele>
        <time>2019-05-10T11:31:44Z</time>
      </trkpt>
      <trkpt lat="43.77434" lon="5.92447">
        <ele>512</ele>
        <time>2019-05-10T11:31:55Z</time>
      </trkpt>
      <trkpt lat="43.7746" lon="5.92499">
        <ele>512</ele>
        <time>2019-05-10T11:32:09Z</time>
      </trkpt>
      <trkpt lat="43.77488" lon="5.92548">
        <ele>512</ele>
        <time>2019-05-10T11:32:21Z</time>
      </trkpt>
      <trkpt lat="43.77534" lon="5.92564">
        <ele>512</ele>
        <time>2019-05-10T11:32:34Z</time>
      </trkpt>
      <trkpt lat="43.77578" lon="5.92592">
        <ele>512</ele>
        <time>2019-05-10T11:32:45Z</time>
      </trkpt>
      <trkpt lat="43.77621" lon="5.92611">
        <ele>512</ele>
        <time>2019-05-10T11:32:55Z</time>
      </trkpt>
      <trkpt lat="43.77667" lon="5.92627">
        <ele>512</ele>
        <time>2019-05-10T11:33:10Z</time>
      </trkpt>
      <trkpt lat="43.77711" lon="5.9264">
        <ele>512</ele>
        <time>2019-05-10T11:33:22Z</time>
      </trkpt>
      <trkpt lat="43.77753" lon="5.92671">
        <ele>512</ele>
        <time>2019-05-10T11:33:33Z</time>
      </trkpt>
      <trkpt lat="43.77795" lon="5.92699">
        <ele>512</ele>
        <time>2019-05-10T11:33:49Z</time>
      </trkpt>
      <trkpt lat="43.77836" lon="5.92728">
        <ele>512</ele>
        <time>2019-05-10T11:34:05Z</time>
      </trkpt>
      <trkpt lat="43.7788" lon="5.92757">
        <ele>517</ele>
        <time>2019-05-10T11:34:20Z</time>
      </trkpt>
      <trkpt lat="43.77923" lon="5.92784">
        <ele>517</ele>
        <time>2019-05-10T11:34:33Z</time>
      </trkpt>
      <trkpt lat="43.77966" lon="5.92809">
        <ele>517</ele>
        <time>2019-05-10T11:34:43Z</time>
      </trkpt>
      <trkpt lat="43.78012" lon="5.92835">
        <ele>516</ele>
        <time>2019-05-10T11:34:53Z</time>
      </trkpt>
      <trkpt lat="43.78056" lon="5.92862">
        <ele>514</ele>
        <time>2019-05-10T11:35:03Z</time>
      </trkpt>
      <trkpt lat="43.78097" lon="5.92888">
        <ele>515</ele>
        <time>2019-05-10T11:35:19Z</time>
      </trkpt>
      <trkpt lat="43.78138" lon="5.92914">
        <ele>518</ele>
        <time>2019-05-10T11:35:38Z</time>
      </trkpt>
      <trkpt lat="43.78178" lon="5.92948">
        <ele>519</ele>
        <time>2019-05-10T11:35:54Z</time>
      </trkpt>
      <trkpt lat="43.78215" lon="5.92985">
        <ele>521</ele>
        <time>2019-05-10T11:36:11Z</time>
      </trkpt>
      <trkpt lat="43.7825" lon="5.93025">
        <ele>522</ele>
        <time>2019-05-10T11:36:25Z</time>
      </trkpt>
      <trkpt lat="43.78285" lon="5.93068">
        <ele>523</ele>
        <time>2019-05-10T11:36:42Z</time>
      </trkpt>
      <trkpt lat="43.78319" lon="5.93109">
        <ele>524</ele>
        <time>2019-05-10T11:36:53Z</time>
      </trkpt>
      <trkpt lat="43.78354" lon="5.9315">
        <ele>525</ele>
        <time>2019-05-10T11:37:08Z</time>
      </trkpt>
      <trkpt lat="43.7839" lon="5.93192">
        <ele>525</ele>
        <time>2019-05-10T11:37:21Z</time>
      </trkpt>
      <trkpt lat="43.78426" lon="5.93234">
        <ele>526</ele>
        <time>2019-05-10T11:38:25Z</time>
      </trkpt>
      <trkpt lat="43.78463" lon="5.93278">
        <ele>527</ele>
        <time>2019-05-10T11:38:40Z</time>
      </trkpt>
      <trkpt lat="43.785" lon="5.93321">
        <ele>528</ele>
        <time>2019-05-10T11:38:53Z</time>
      </trkpt>
      <trkpt lat="43.78536" lon="5.93365">
        <ele>528</ele>
        <time>2019-05-10T11:39:05Z</time>
      </trkpt>
      <trkpt lat="43.78571" lon="5.93408">
        <ele>529</ele>
        <time>2019-05-10T11:39:16Z</time>
      </trkpt>
      <trkpt lat="43.78609" lon="5.93451">
        <ele>530</ele>
        <time>2019-05-10T11:39:28Z</time>
      </trkpt>
      <trkpt lat="43.78645" lon="5.93492">
        <ele>530</ele>
        <time>2019-05-10T11:40:02Z</time>
      </trkpt>
      <trkpt lat="43.78683" lon="5.93536">
        <ele>531</ele>
        <time>2019-05-10T11:40:16Z</time>
      </trkpt>
      <trkpt lat="43.7872" lon="5.93583">
        <ele>531</ele>
        <time>2019-05-10T11:40:27Z</time>
      </trkpt>
      <trkpt lat="43.78754" lon="5.93625">
        <ele>532</ele>
        <time>2019-05-10T11:40:37Z</time>
      </trkpt>
      <trkpt lat="43.78789" lon="5.93665">
        <ele>532</ele>
        <time>2019-05-10T11:40:47Z</time>
      </trkpt>
      <trkpt lat="43.78826" lon="5.93706">
        <ele>533</ele>
        <time>2019-05-10T11:40:57Z</time>
      </trkpt>
      <trkpt lat="43.78855" lon="5.93755">
        <ele>532</ele>
        <time>2019-05-10T11:41:09Z</time>
      </trkpt>
      <trkpt lat="43.78886" lon="5.938">
        <ele>532</ele>
        <time>2019-05-10T11:41:20Z</time>
      </trkpt>
      <trkpt lat="43.78915" lon="5.93846">
        <ele>532</ele>
        <time>2019-05-10T11:41:37Z</time>
      </trkpt>
      <trkpt lat="43.78924" lon="5.93909">
        <ele>532</ele>
        <time>2019-05-10T11:42:28Z</time>
      </trkpt>
      <trkpt lat="43.78929" lon="5.93975">
        <ele>532</ele>
        <time>2019-05-10T11:42:45Z</time>
      </trkpt>
      <trkpt lat="43.78933" lon="5.94043">
        <ele>532</ele>
        <time>2019-05-10T11:42:57Z</time>
      </trkpt>
      <trkpt lat="43.78938" lon="5.94109">
        <ele>532</ele>
        <time>2019-05-10T11:43:07Z</time>
      </trkpt>
      <trkpt lat="43.78936" lon="5.94176">
        <ele>532</ele>
        <time>2019-05-10T11:43:17Z</time>
      </trkpt>
      <trkpt lat="43.78927" lon="5.94241">
        <ele>532</ele>
        <time>2019-05-10T11:43:26Z</time>
      </trkpt>
      <trkpt lat="43.78931" lon="5.94302">
        <ele>532</ele>
        <time>2019-05-10T11:43:33Z</time>
      </trkpt>
      <trkpt lat="43.78964" lon="5.94345">
        <ele>532</ele>
        <time>2019-05-10T11:43:41Z</time>
      </trkpt>
      <trkpt lat="43.78997" lon="5.94399">
        <ele>532</ele>
        <time>2019-05-10T11:43:50Z</time>
      </trkpt>
      <trkpt lat="43.7903" lon="5.94447">
        <ele>532</ele>
        <time>2019-05-10T11:43:57Z</time>
      </trkpt>
      <trkpt lat="43.7906" lon="5.94497">
        <ele>532</ele>
        <time>2019-05-10T11:44:06Z</time>
      </trkpt>
      <trkpt lat="43.79088" lon="5.94547">
        <ele>523</ele>
        <time>2019-05-10T11:44:27Z</time>
      </trkpt>
      <trkpt lat="43.79114" lon="5.94599">
        <ele>525</ele>
        <time>2019-05-10T11:44:41Z</time>
      </trkpt>
      <trkpt lat="43.79147" lon="5.94644">
        <ele>527</ele>
        <time>2019-05-10T11:44:55Z</time>
      </trkpt>
      <trkpt lat="43.7919" lon="5.9467">
        <ele>528</ele>
        <time>2019-05-10T11:45:11Z</time>
      </trkpt>
      <trkpt lat="43.79237" lon="5.94677">
        <ele>529</ele>
        <time>2019-05-10T11:45:24Z</time>
      </trkpt>
      <trkpt lat="43.79278" lon="5.94706">
        <ele>528</ele>
        <time>2019-05-10T11:45:39Z</time>
      </trkpt>
      <trkpt lat="43.79314" lon="5.94749">
        <ele>530</ele>
        <time>2019-05-10T11:46:03Z</time>
      </trkpt>
      <trkpt lat="43.79359" lon="5.94773">
        <ele>531</ele>
        <time>2019-05-10T11:46:19Z</time>
      </trkpt>
      <trkpt lat="43.79406" lon="5.948">
        <ele>532</ele>
        <time>2019-05-10T11:46:30Z</time>
      </trkpt>
      <trkpt lat="43.79449" lon="5.94829">
        <ele>531</ele>
        <time>2019-05-10T11:46:39Z</time>
      </trkpt>
      <trkpt lat="43.79486" lon="5.94866">
        <ele>531</ele>
        <time>2019-05-10T11:46:53Z</time>
      </trkpt>
      <trkpt lat="43.79509" lon="5.94924">
        <ele>530</ele>
        <time>2019-05-10T11:47:23Z</time>
      </trkpt>
      <trkpt lat="43.79525" lon="5.94982">
        <ele>534</ele>
        <time>2019-05-10T11:47:42Z</time>
      </trkpt>
      <trkpt lat="43.79515" lon="5.95045">
        <ele>536</ele>
        <time>2019-05-10T11:48:01Z</time>
      </trkpt>
      <trkpt lat="43.79557" lon="5.95075">
        <ele>536</ele>
        <time>2019-05-10T11:48:15Z</time>
      </trkpt>
      <trkpt lat="43.79592" lon="5.95115">
        <ele>535</ele>
        <time>2019-05-10T11:48:26Z</time>
      </trkpt>
      <trkpt lat="43.79602" lon="5.95178">
        <ele>534</ele>
        <time>2019-05-10T11:48:37Z</time>
      </trkpt>
      <trkpt lat="43.79603" lon="5.95245">
        <ele>533</ele>
        <time>2019-05-10T11:48:47Z</time>
      </trkpt>
      <trkpt lat="43.796" lon="5.95313">
        <ele>532</ele>
        <time>2019-05-10T11:48:59Z</time>
      </trkpt>
      <trkpt lat="43.79586" lon="5.95374">
        <ele>534</ele>
        <time>2019-05-10T11:49:36Z</time>
      </trkpt>
      <trkpt lat="43.79566" lon="5.95433">
        <ele>539</ele>
        <time>2019-05-10T11:49:58Z</time>
      </trkpt>
      <trkpt lat="43.79559" lon="5.95499">
        <ele>538</ele>
        <time>2019-05-10T11:50:10Z</time>
      </trkpt>
      <trkpt lat="43.79568" lon="5.95562">
        <ele>535</ele>
        <time>2019-05-10T11:50:23Z</time>
      </trkpt>
      <trkpt lat="43.796" lon="5.95612">
        <ele>533</ele>
        <time>2019-05-10T11:50:31Z</time>
      </trkpt>
      <trkpt lat="43.79633" lon="5.95656">
        <ele>533</ele>
        <time>2019-05-10T11:50:40Z</time>
      </trkpt>
      <trkpt lat="43.79667" lon="5.95698">
        <ele>533</ele>
        <time>2019-05-10T11:51:04Z</time>
      </trkpt>
      <trkpt lat="43.79695" lon="5.95747">
        <ele>538</ele>
        <time>2019-05-10T11:51:26Z</time>
      </trkpt>
      <trkpt lat="43.79709" lon="5.95813">
        <ele>538</ele>
        <time>2019-05-10T11:51:40Z</time>
      </trkpt>
      <trkpt lat="43.79724" lon="5.95873">
        <ele>536</ele>
        <time>2019-05-10T11:51:52Z</time>
      </trkpt>
      <trkpt lat="43.79756" lon="5.95915">
        <ele>538</ele>
        <time>2019-05-10T11:52:12Z</time>
      </trkpt>
      <trkpt lat="43.79797" lon="5.95946">
        <ele>540</ele>
        <time>2019-05-10T11:52:28Z</time>
      </trkpt>
      <trkpt lat="43.79833" lon="5.9599">
        <ele>540</ele>
        <time>2019-05-10T11:52:44Z</time>
      </trkpt>
      <trkpt lat="43.79848" lon="5.96054">
        <ele>540</ele>
        <time>2019-05-10T11:52:57Z</time>
      </trkpt>
      <trkpt lat="43.79838" lon="5.96119">
        <ele>539</ele>
        <time>2019-05-10T11:53:06Z</time>
      </trkpt>
      <trkpt lat="43.79843" lon="5.9618">
        <ele>539</ele>
        <time>2019-05-10T11:53:21Z</time>
      </trkpt>
      <trkpt lat="43.79861" lon="5.96239">
        <ele>538</ele>
        <time>2019-05-10T11:53:37Z</time>
      </trkpt>
      <trkpt lat="43.79878" lon="5.96298">
        <ele>541</ele>
        <time>2019-05-10T11:53:59Z</time>
      </trkpt>
      <trkpt lat="43.79907" lon="5.96348">
        <ele>545</ele>
        <time>2019-05-10T11:54:18Z</time>
      </trkpt>
      <trkpt lat="43.79927" lon="5.96406">
        <ele>545</ele>
        <time>2019-05-10T11:54:34Z</time>
      </trkpt>
      <trkpt lat="43.79948" lon="5.96464">
        <ele>546</ele>
        <time>2019-05-10T11:54:50Z</time>
      </trkpt>
      <trkpt lat="43.79971" lon="5.96519">
        <ele>547</ele>
        <time>2019-05-10T11:55:09Z</time>
      </trkpt>
      <trkpt lat="43.80003" lon="5.96564">
        <ele>549</ele>
        <time>2019-05-10T11:55:28Z</time>
      </trkpt>
      <trkpt lat="43.8004" lon="5.96604">
        <ele>550</ele>
        <time>2019-05-10T11:55:42Z</time>
      </trkpt>
      <trkpt lat="43.8006" lon="5.96665">
        <ele>551</ele>
        <time>2019-05-10T11:55:54Z</time>
      </trkpt>
      <trkpt lat="43.80085" lon="5.96717">
        <ele>553</ele>
        <time>2019-05-10T11:56:06Z</time>
      </trkpt>
      <trkpt lat="43.80114" lon="5.96771">
        <ele>553</ele>
        <time>2019-05-10T11:56:19Z</time>
      </trkpt>
      <trkpt lat="43.80142" lon="5.96826">
        <ele>552</ele>
        <time>2019-05-10T11:56:29Z</time>
      </trkpt>
      <trkpt lat="43.80163" lon="5.96886">
        <ele>550</ele>
        <time>2019-05-10T11:56:39Z</time>
      </trkpt>
      <trkpt lat="43.8019" lon="5.96937">
        <ele>550</ele>
        <time>2019-05-10T11:56:54Z</time>
      </trkpt>
      <trkpt lat="43.80223" lon="5.96982">
        <ele>551</ele>
        <time>2019-05-10T11:57:05Z</time>
      </trkpt>
      <trkpt lat="43.80249" lon="5.97034">
        <ele>552</ele>
        <time>2019-05-10T11:57:16Z</time>
      </trkpt>
      <trkpt lat="43.80289" lon="5.97044">
        <ele>556</ele>
        <time>2019-05-10T11:57:33Z</time>
      </trkpt>
      <trkpt lat="43.80332" lon="5.97022">
        <ele>558</ele>
        <time>2019-05-10T11:57:51Z</time>
      </trkpt>
      <trkpt lat="43.80375" lon="5.96997">
        <ele>558</ele>
        <time>2019-05-10T11:58:48Z</time>
      </trkpt>
      <trkpt lat="43.80419" lon="5.96976">
        <ele>559</ele>
        <time>2019-05-10T11:59:06Z</time>
      </trkpt>
      <trkpt lat="43.80435" lon="5.97029">
        <ele>559</ele>
        <time>2019-05-10T11:59:21Z</time>
      </trkpt>
      <trkpt lat="43.80437" lon="5.97096">
        <ele>559</ele>
        <time>2019-05-10T11:59:33Z</time>
      </trkpt>
      <trkpt lat="43.80438" lon="5.9716">
        <ele>559</ele>
        <time>2019-05-10T11:59:41Z</time>
      </trkpt>
      <trkpt lat="43.80463" lon="5.97213">
        <ele>559</ele>
        <time>2019-05-10T11:59:50Z</time>
      </trkpt>
      <trkpt lat="43.80502" lon="5.9725">
        <ele>559</ele>
        <time>2019-05-10T12:00:01Z</time>
      </trkpt>
      <trkpt lat="43.80539" lon="5.9729">
        <ele>559</ele>
        <time>2019-05-10T12:00:12Z</time>
      </trkpt>
      <trkpt lat="43.80577" lon="5.97331">
        <ele>559</ele>
        <time>2019-05-10T12:00:23Z</time>
      </trkpt>
      <trkpt lat="43.80617" lon="5.97375">
        <ele>559</ele>
        <time>2019-05-10T12:00:32Z</time>
      </trkpt>
      <trkpt lat="43.80654" lon="5.97419">
        <ele>559</ele>
        <time>2019-05-10T12:00:39Z</time>
      </trkpt>
      <trkpt lat="43.8069" lon="5.97457">
        <ele>559</ele>
        <time>2019-05-10T12:00:47Z</time>
      </trkpt>
      <trkpt lat="43.80726" lon="5.97495">
        <ele>559</ele>
        <time>2019-05-10T12:01:00Z</time>
      </trkpt>
      <trkpt lat="43.80762" lon="5.97534">
        <ele>559</ele>
        <time>2019-05-10T12:01:15Z</time>
      </trkpt>
      <trkpt lat="43.80798" lon="5.97573">
        <ele>559</ele>
        <time>2019-05-10T12:01:28Z</time>
      </trkpt>
      <trkpt lat="43.80833" lon="5.97611">
        <ele>563</ele>
        <time>2019-05-10T12:01:43Z</time>
      </trkpt>
      <trkpt lat="43.80869" lon="5.97651">
        <ele>565</ele>
        <time>2019-05-10T12:01:56Z</time>
      </trkpt>
      <trkpt lat="43.80906" lon="5.97694">
        <ele>565</ele>
        <time>2019-05-10T12:02:10Z</time>
      </trkpt>
      <trkpt lat="43.80928" lon="5.97729">
        <ele>565</ele>
        <time>2019-05-10T12:05:00Z</time>
      </trkpt>
      <trkpt lat="43.80964" lon="5.97763">
        <ele>565</ele>
        <time>2019-05-10T12:05:12Z</time>
      </trkpt>
      <trkpt lat="43.8101" lon="5.97741">
        <ele>561</ele>
        <time>2019-05-10T12:05:43Z</time>
      </trkpt>
      <trkpt lat="43.81053" lon="5.97712">
        <ele>558</ele>
        <time>2019-05-10T12:05:55Z</time>
      </trkpt>
      <trkpt lat="43.81101" lon="5.97699">
        <ele>554</ele>
        <time>2019-05-10T12:06:05Z</time>
      </trkpt>
      <trkpt lat="43.81148" lon="5.97676">
        <ele>550</ele>
        <time>2019-05-10T12:06:13Z</time>
      </trkpt>
      <trkpt lat="43.81189" lon="5.97647">
        <ele>549</ele>
        <time>2019-05-10T12:06:30Z</time>
      </trkpt>
      <trkpt lat="43.8123" lon="5.97619">
        <ele>553</ele>
        <time>2019-05-10T12:06:47Z</time>
      </trkpt>
      <trkpt lat="43.81273" lon="5.97604">
        <ele>556</ele>
        <time>2019-05-10T12:07:03Z</time>
      </trkpt>
      <trkpt lat="43.8132" lon="5.97606">
        <ele>558</ele>
        <time>2019-05-10T12:07:20Z</time>
      </trkpt>
      <trkpt lat="43.81362" lon="5.97586">
        <ele>562</ele>
        <time>2019-05-10T12:07:42Z</time>
      </trkpt>
      <trkpt lat="43.81409" lon="5.97592">
        <ele>565</ele>
        <time>2019-05-10T12:08:01Z</time>
      </trkpt>
      <trkpt lat="43.81454" lon="5.97611">
        <ele>565</ele>
        <time>2019-05-10T12:08:12Z</time>
      </trkpt>
      <trkpt lat="43.81502" lon="5.97607">
        <ele>563</ele>
        <time>2019-05-10T12:08:23Z</time>
      </trkpt>
      <trkpt lat="43.81539" lon="5.97569">
        <ele>564</ele>
        <time>2019-05-10T12:08:39Z</time>
      </trkpt>
      <trkpt lat="43.81576" lon="5.97527">
        <ele>567</ele>
        <time>2019-05-10T12:08:57Z</time>
      </trkpt>
      <trkpt lat="43.81617" lon="5.97492">
        <ele>568</ele>
        <time>2019-05-10T12:09:11Z</time>
      </trkpt>
      <trkpt lat="43.81656" lon="5.97452">
        <ele>567</ele>
        <time>2019-05-10T12:09:21Z</time>
      </trkpt>
      <trkpt lat="43.81694" lon="5.97414">
        <ele>565</ele>
        <time>2019-05-10T12:09:29Z</time>
      </trkpt>
      <trkpt lat="43.81731" lon="5.97377">
        <ele>563</ele>
        <time>2019-05-10T12:09:38Z</time>
      </trkpt>
      <trkpt lat="43.81772" lon="5.97351">
        <ele>562</ele>
        <time>2019-05-10T12:09:47Z</time>
      </trkpt>
      <trkpt lat="43.81818" lon="5.97339">
        <ele>559</ele>
        <time>2019-05-10T12:09:57Z</time>
      </trkpt>
      <trkpt lat="43.81865" lon="5.97326">
        <ele>554</ele>
        <time>2019-05-10T12:10:07Z</time>
      </trkpt>
      <trkpt lat="43.81917" lon="5.97316">
        <ele>548</ele>
        <time>2019-05-10T12:10:16Z</time>
      </trkpt>
      <trkpt lat="43.81965" lon="5.97301">
        <ele>543</ele>
        <time>2019-05-10T12:10:24Z</time>
      </trkpt>
      <trkpt lat="43.81956" lon="5.97328">
        <ele>535</ele>
        <time>2019-05-10T12:10:42Z</time>
      </trkpt>
      <trkpt lat="43.81911" lon="5.97361">
        <ele>533</ele>
        <time>2019-05-10T12:10:52Z</time>
      </trkpt>
      <trkpt lat="43.81937" lon="5.97372">
        <ele>530</ele>
        <time>2019-05-10T12:11:04Z</time>
      </trkpt>
      <trkpt lat="43.81985" lon="5.97352">
        <ele>527</ele>
        <time>2019-05-10T12:11:12Z</time>
      </trkpt>
      <trkpt lat="43.82032" lon="5.97319">
        <ele>522</ele>
        <time>2019-05-10T12:11:19Z</time>
      </trkpt>
      <trkpt lat="43.82071" lon="5.97282">
        <ele>517</ele>
        <time>2019-05-10T12:11:26Z</time>
      </trkpt>
      <trkpt lat="43.82114" lon="5.97268">
        <ele>512</ele>
        <time>2019-05-10T12:11:34Z</time>
      </trkpt>
      <trkpt lat="43.82162" lon="5.9727">
        <ele>507</ele>
        <time>2019-05-10T12:11:42Z</time>
      </trkpt>
      <trkpt lat="43.82208" lon="5.9728">
        <ele>503</ele>
        <time>2019-05-10T12:11:51Z</time>
      </trkpt>
      <trkpt lat="43.82245" lon="5.9734">
        <ele>499</ele>
        <time>2019-05-10T12:12:01Z</time>
      </trkpt>
      <trkpt lat="43.82285" lon="5.97371">
        <ele>497</ele>
        <time>2019-05-10T12:12:11Z</time>
      </trkpt>
      <trkpt lat="43.82332" lon="5.97389">
        <ele>496</ele>
        <time>2019-05-10T12:12:21Z</time>
      </trkpt>
      <trkpt lat="43.82292" lon="5.9739">
        <ele>495</ele>
        <time>2019-05-10T12:12:52Z</time>
      </trkpt>
      <trkpt lat="43.82249" lon="5.97364">
        <ele>497</ele>
        <time>2019-05-10T12:13:10Z</time>
      </trkpt>
      <trkpt lat="43.82229" lon="5.97334">
        <ele>498</ele>
        <time>2019-05-10T12:14:28Z</time>
      </trkpt>
      <trkpt lat="43.82246" lon="5.97394">
        <ele>498</ele>
        <time>2019-05-10T12:14:47Z</time>
      </trkpt>
      <trkpt lat="43.82248" lon="5.97458">
        <ele>501</ele>
        <time>2019-05-10T12:15:09Z</time>
      </trkpt>
      <trkpt lat="43.82251" lon="5.97522">
        <ele>500</ele>
        <time>2019-05-10T12:15:22Z</time>
      </trkpt>
      <trkpt lat="43.82247" lon="5.9759">
        <ele>499</ele>
        <time>2019-05-10T12:15:37Z</time>
      </trkpt>
      <trkpt lat="43.8225" lon="5.9766">
        <ele>499</ele>
        <time>2019-05-10T12:15:52Z</time>
      </trkpt>
      <trkpt lat="43.82255" lon="5.97724">
        <ele>499</ele>
        <time>2019-05-10T12:16:07Z</time>
      </trkpt>
      <trkpt lat="43.82257" lon="5.97787">
        <ele>499</ele>
        <time>2019-05-10T12:16:26Z</time>
      </trkpt>
      <trkpt lat="43.82265" lon="5.97854">
        <ele>499</ele>
        <time>2019-05-10T12:16:47Z</time>
      </trkpt>
      <trkpt lat="43.82283" lon="5.97923">
        <ele>501</ele>
        <time>2019-05-10T12:16:58Z</time>
      </trkpt>
      <trkpt lat="43.82295" lon="5.97986">
        <ele>503</ele>
        <time>2019-05-10T12:17:21Z</time>
      </trkpt>
      <trkpt lat="43.82313" lon="5.98046">
        <ele>505</ele>
        <time>2019-05-10T12:17:41Z</time>
      </trkpt>
      <trkpt lat="43.82337" lon="5.98101">
        <ele>507</ele>
        <time>2019-05-10T12:17:59Z</time>
      </trkpt>
      <trkpt lat="43.82356" lon="5.98163">
        <ele>506</ele>
        <time>2019-05-10T12:18:16Z</time>
      </trkpt>
      <trkpt lat="43.82372" lon="5.98226">
        <ele>508</ele>
        <time>2019-05-10T12:18:39Z</time>
      </trkpt>
      <trkpt lat="43.82396" lon="5.98287">
        <ele>510</ele>
        <time>2019-05-10T12:18:58Z</time>
      </trkpt>
      <trkpt lat="43.82419" lon="5.98345">
        <ele>510</ele>
        <time>2019-05-10T12:19:07Z</time>
      </trkpt>
      <trkpt lat="43.8244" lon="5.98405">
        <ele>509</ele>
        <time>2019-05-10T12:19:22Z</time>
      </trkpt>
      <trkpt lat="43.82467" lon="5.98462">
        <ele>511</ele>
        <time>2019-05-10T12:19:41Z</time>
      </trkpt>
      <trkpt lat="43.82496" lon="5.98517">
        <ele>513</ele>
        <time>2019-05-10T12:19:59Z</time>
      </trkpt>
      <trkpt lat="43.82527" lon="5.98571">
        <ele>513</ele>
        <time>2019-05-10T12:20:12Z</time>
      </trkpt>
      <trkpt lat="43.82555" lon="5.98629">
        <ele>514</ele>
        <time>2019-05-10T12:20:33Z</time>
      </trkpt>
      <trkpt lat="43.8258" lon="5.98687">
        <ele>516</ele>
        <time>2019-05-10T12:20:55Z</time>
      </trkpt>
      <trkpt lat="43.82606" lon="5.98744">
        <ele>518</ele>
        <time>2019-05-10T12:21:15Z</time>
      </trkpt>
      <trkpt lat="43.82622" lon="5.98805">
        <ele>520</ele>
        <time>2019-05-10T12:21:32Z</time>
      </trkpt>
      <trkpt lat="43.82653" lon="5.98852">
        <ele>521</ele>
        <time>2019-05-10T12:21:49Z</time>
      </trkpt>
      <trkpt lat="43.82679" lon="5.98906">
        <ele>521</ele>
        <time>2019-05-10T12:22:04Z</time>
      </trkpt>
      <trkpt lat="43.82722" lon="5.98962">
        <ele>518</ele>
        <time>2019-05-10T12:22:21Z</time>
      </trkpt>
      <trkpt lat="43.82754" lon="5.99021">
        <ele>520</ele>
        <time>2019-05-10T12:22:50Z</time>
      </trkpt>
      <trkpt lat="43.82788" lon="5.99074">
        <ele>522</ele>
        <time>2019-05-10T12:23:09Z</time>
      </trkpt>
      <trkpt lat="43.82828" lon="5.99129">
        <ele>520</ele>
        <time>2019-05-10T12:23:20Z</time>
      </trkpt>
      <trkpt lat="43.82859" lon="5.99182">
        <ele>521</ele>
        <time>2019-05-10T12:24:47Z</time>
      </trkpt>
      <trkpt lat="43.82891" lon="5.99234">
        <ele>522</ele>
        <time>2019-05-10T12:25:05Z</time>
      </trkpt>
      <trkpt lat="43.82916" lon="5.99286">
        <ele>525</ele>
        <time>2019-05-10T12:25:33Z</time>
      </trkpt>
      <trkpt lat="43.82924" lon="5.99347">
        <ele>530</ele>
        <time>2019-05-10T12:26:01Z</time>
      </trkpt>
      <trkpt lat="43.82959" lon="5.99396">
        <ele>531</ele>
        <time>2019-05-10T12:26:20Z</time>
      </trkpt>
      <trkpt lat="43.82984" lon="5.99452">
        <ele>531</ele>
        <time>2019-05-10T12:26:36Z</time>
      </trkpt>
      <trkpt lat="43.8301" lon="5.99504">
        <ele>531</ele>
        <time>2019-05-10T12:26:50Z</time>
      </trkpt>
      <trkpt lat="43.83043" lon="5.99524">
        <ele>531</ele>
        <time>2019-05-10T12:27:08Z</time>
      </trkpt>
      <trkpt lat="43.83078" lon="5.99482">
        <ele>531</ele>
        <time>2019-05-10T12:27:19Z</time>
      </trkpt>
      <trkpt lat="43.83108" lon="5.99429">
        <ele>531</ele>
        <time>2019-05-10T12:27:40Z</time>
      </trkpt>
      <trkpt lat="43.83117" lon="5.99363">
        <ele>539</ele>
        <time>2019-05-10T12:29:25Z</time>
      </trkpt>
      <trkpt lat="43.83128" lon="5.99293">
        <ele>551</ele>
        <time>2019-05-10T12:31:29Z</time>
      </trkpt>
      <trkpt lat="43.83123" lon="5.99219">
        <ele>563</ele>
        <time>2019-05-10T12:34:19Z</time>
      </trkpt>
      <trkpt lat="43.83153" lon="5.99151">
        <ele>576</ele>
        <time>2019-05-10T12:37:04Z</time>
      </trkpt>
      <trkpt lat="43.8319" lon="5.99102">
        <ele>577</ele>
        <time>2019-05-10T12:37:41Z</time>
      </trkpt>
      <trkpt lat="43.83224" lon="5.99059">
        <ele>574</ele>
        <time>2019-05-10T12:37:51Z</time>
      </trkpt>
      <trkpt lat="43.8326" lon="5.99011">
        <ele>568</ele>
        <time>2019-05-10T12:38:03Z</time>
      </trkpt>
      <trkpt lat="43.833" lon="5.98969">
        <ele>562</ele>
        <time>2019-05-10T12:38:14Z</time>
      </trkpt>
      <trkpt lat="43.83335" lon="5.98927">
        <ele>556</ele>
        <time>2019-05-10T12:38:22Z</time>
      </trkpt>
      <trkpt lat="43.83368" lon="5.98879">
        <ele>550</ele>
        <time>2019-05-10T12:38:30Z</time>
      </trkpt>
      <trkpt lat="43.83399" lon="5.98823">
        <ele>545</ele>
        <time>2019-05-10T12:38:37Z</time>
      </trkpt>
      <trkpt lat="43.8343" lon="5.98769">
        <ele>540</ele>
        <time>2019-05-10T12:38:45Z</time>
      </trkpt>
      <trkpt lat="43.83457" lon="5.98714">
        <ele>536</ele>
        <time>2019-05-10T12:38:54Z</time>
      </trkpt>
      <trkpt lat="43.8347" lon="5.98689">
        <ele>532</ele>
        <time>2019-05-10T12:40:07Z</time>
      </trkpt>
      <trkpt lat="43.8349" lon="5.98631">
        <ele>531</ele>
        <time>2019-05-10T12:40:16Z</time>
      </trkpt>
      <trkpt lat="43.83516" lon="5.98581">
        <ele>528</ele>
        <time>2019-05-10T12:40:26Z</time>
      </trkpt>
      <trkpt lat="43.83546" lon="5.98533">
        <ele>529</ele>
        <time>2019-05-10T12:40:48Z</time>
      </trkpt>
      <trkpt lat="43.83572" lon="5.9848">
        <ele>532</ele>
        <time>2019-05-10T12:41:11Z</time>
      </trkpt>
      <trkpt lat="43.83558" lon="5.98424">
        <ele>535</ele>
        <time>2019-05-10T12:41:47Z</time>
      </trkpt>
      <trkpt lat="43.83521" lon="5.98383">
        <ele>534</ele>
        <time>2019-05-10T12:42:00Z</time>
      </trkpt>
      <trkpt lat="43.83481" lon="5.98342">
        <ele>532</ele>
        <time>2019-05-10T12:42:15Z</time>
      </trkpt>
      <trkpt lat="43.83465" lon="5.9835">
        <ele>530</ele>
        <time>2019-05-10T13:10:57Z</time>
      </trkpt>
      <trkpt lat="43.83448" lon="5.98296">
        <ele>530</ele>
        <time>2019-05-10T13:11:43Z</time>
      </trkpt>
      <trkpt lat="43.83424" lon="5.9824">
        <ele>538</ele>
        <time>2019-05-10T13:12:08Z</time>
      </trkpt>
      <trkpt lat="43.83409" lon="5.9818">
        <ele>540</ele>
        <time>2019-05-10T13:12:31Z</time>
      </trkpt>
      <trkpt lat="43.83419" lon="5.98118">
        <ele>542</ele>
        <time>2019-05-10T13:12:51Z</time>
      </trkpt>
      <trkpt lat="43.83414" lon="5.98062">
        <ele>542</ele>
        <time>2019-05-10T13:13:05Z</time>
      </trkpt>
      <trkpt lat="43.83379" lon="5.98023">
        <ele>545</ele>
        <time>2019-05-10T13:13:27Z</time>
      </trkpt>
      <trkpt lat="43.83348" lon="5.9797">
        <ele>548</ele>
        <time>2019-05-10T13:13:47Z</time>
      </trkpt>
      <trkpt lat="43.83338" lon="5.97906">
        <ele>547</ele>
        <time>2019-05-10T13:13:57Z</time>
      </trkpt>
      <trkpt lat="43.83302" lon="5.97866">
        <ele>545</ele>
        <time>2019-05-10T13:14:08Z</time>
      </trkpt>
      <trkpt lat="43.83293" lon="5.97801">
        <ele>545</ele>
        <time>2019-05-10T13:14:24Z</time>
      </trkpt>
      <trkpt lat="43.833" lon="5.9774">
        <ele>547</ele>
        <time>2019-05-10T13:14:43Z</time>
      </trkpt>
      <trkpt lat="43.83288" lon="5.97675">
        <ele>546</ele>
        <time>2019-05-10T13:14:57Z</time>
      </trkpt>
      <trkpt lat="43.83253" lon="5.97629">
        <ele>546</ele>
        <time>2019-05-10T13:15:09Z</time>
      </trkpt>
      <trkpt lat="43.83219" lon="5.97585">
        <ele>545</ele>
        <time>2019-05-10T13:15:17Z</time>
      </trkpt>
      <trkpt lat="43.83188" lon="5.97534">
        <ele>542</ele>
        <time>2019-05-10T13:15:26Z</time>
      </trkpt>
      <trkpt lat="43.83149" lon="5.97509">
        <ele>534</ele>
        <time>2019-05-10T13:15:37Z</time>
      </trkpt>
      <trkpt lat="43.83102" lon="5.97508">
        <ele>530</ele>
        <time>2019-05-10T13:15:45Z</time>
      </trkpt>
      <trkpt lat="43.83052" lon="5.97479">
        <ele>527</ele>
        <time>2019-05-10T13:15:52Z</time>
      </trkpt>
      <trkpt lat="43.83003" lon="5.97445">
        <ele>523</ele>
        <time>2019-05-10T13:15:58Z</time>
      </trkpt>
      <trkpt lat="43.82959" lon="5.97418">
        <ele>520</ele>
        <time>2019-05-10T13:16:04Z</time>
      </trkpt>
      <trkpt lat="43.82918" lon="5.97375">
        <ele>517</ele>
        <time>2019-05-10T13:16:11Z</time>
      </trkpt>
      <trkpt lat="43.82878" lon="5.97331">
        <ele>515</ele>
        <time>2019-05-10T13:16:18Z</time>
      </trkpt>
      <trkpt lat="43.82837" lon="5.97293">
        <ele>513</ele>
        <time>2019-05-10T13:16:25Z</time>
      </trkpt>
      <trkpt lat="43.82798" lon="5.97256">
        <ele>511</ele>
        <time>2019-05-10T13:16:33Z</time>
      </trkpt>
      <trkpt lat="43.8276" lon="5.97215">
        <ele>510</ele>
        <time>2019-05-10T13:16:42Z</time>
      </trkpt>
      <trkpt lat="43.82729" lon="5.97169">
        <ele>510</ele>
        <time>2019-05-10T13:16:57Z</time>
      </trkpt>
      <trkpt lat="43.82695" lon="5.9713">
        <ele>516</ele>
        <time>2019-05-10T13:17:22Z</time>
      </trkpt>
      <trkpt lat="43.82661" lon="5.97087">
        <ele>518</ele>
        <time>2019-05-10T13:17:38Z</time>
      </trkpt>
      <trkpt lat="43.8263" lon="5.97036">
        <ele>517</ele>
        <time>2019-05-10T13:17:52Z</time>
      </trkpt>
      <trkpt lat="43.82607" lon="5.96979">
        <ele>517</ele>
        <time>2019-05-10T13:18:05Z</time>
      </trkpt>
      <trkpt lat="43.82576" lon="5.96924">
        <ele>518</ele>
        <time>2019-05-10T13:18:20Z</time>
      </trkpt>
      <trkpt lat="43.8254" lon="5.96874">
        <ele>518</ele>
        <time>2019-05-10T13:18:33Z</time>
      </trkpt>
      <trkpt lat="43.82504" lon="5.96827">
        <ele>517</ele>
        <time>2019-05-10T13:18:44Z</time>
      </trkpt>
      <trkpt lat="43.82471" lon="5.96781">
        <ele>515</ele>
        <time>2019-05-10T13:18:53Z</time>
      </trkpt>
      <trkpt lat="43.82446" lon="5.96727">
        <ele>515</ele>
        <time>2019-05-10T13:19:06Z</time>
      </trkpt>
      <trkpt lat="43.82408" lon="5.96681">
        <ele>514</ele>
        <time>2019-05-10T13:19:16Z</time>
      </trkpt>
      <trkpt lat="43.82362" lon="5.96676">
        <ele>512</ele>
        <time>2019-05-10T13:19:25Z</time>
      </trkpt>
      <trkpt lat="43.82321" lon="5.96652">
        <ele>507</ele>
        <time>2019-05-10T13:19:33Z</time>
      </trkpt>
      <trkpt lat="43.82287" lon="5.96604">
        <ele>504</ele>
        <time>2019-05-10T13:19:42Z</time>
      </trkpt>
      <trkpt lat="43.82261" lon="5.96571">
        <ele>499</ele>
        <time>2019-05-10T13:19:59Z</time>
      </trkpt>
      <trkpt lat="43.82279" lon="5.96618">
        <ele>500</ele>
        <time>2019-05-10T13:20:25Z</time>
      </trkpt>
      <trkpt lat="43.82231" lon="5.96621">
        <ele>498</ele>
        <time>2019-05-10T13:20:36Z</time>
      </trkpt>
      <trkpt lat="43.82197" lon="5.96568">
        <ele>495</ele>
        <time>2019-05-10T13:20:44Z</time>
      </trkpt>
      <trkpt lat="43.82155" lon="5.96534">
        <ele>493</ele>
        <time>2019-05-10T13:20:52Z</time>
      </trkpt>
      <trkpt lat="43.82124" lon="5.96481">
        <ele>491</ele>
        <time>2019-05-10T13:21:00Z</time>
      </trkpt>
      <trkpt lat="43.82094" lon="5.96428">
        <ele>490</ele>
        <time>2019-05-10T13:21:16Z</time>
      </trkpt>
      <trkpt lat="43.82064" lon="5.96379">
        <ele>489</ele>
        <time>2019-05-10T13:21:27Z</time>
      </trkpt>
      <trkpt lat="43.82034" lon="5.96332">
        <ele>487</ele>
        <time>2019-05-10T13:21:41Z</time>
      </trkpt>
      <trkpt lat="43.8201" lon="5.96274">
        <ele>486</ele>
        <time>2019-05-10T13:21:52Z</time>
      </trkpt>
      <trkpt lat="43.81974" lon="5.96235">
        <ele>486</ele>
        <time>2019-05-10T13:22:10Z</time>
      </trkpt>
      <trkpt lat="43.81991" lon="5.9618">
        <ele>488</ele>
        <time>2019-05-10T13:23:19Z</time>
      </trkpt>
      <trkpt lat="43.82015" lon="5.96124">
        <ele>491</ele>
        <time>2019-05-10T13:23:40Z</time>
      </trkpt>
      <trkpt lat="43.82042" lon="5.96069">
        <ele>496</ele>
        <time>2019-05-10T13:24:01Z</time>
      </trkpt>
      <trkpt lat="43.82049" lon="5.96003">
        <ele>503</ele>
        <time>2019-05-10T13:24:26Z</time>
      </trkpt>
      <trkpt lat="43.8205" lon="5.95941">
        <ele>510</ele>
        <time>2019-05-10T13:24:51Z</time>
      </trkpt>
      <trkpt lat="43.82037" lon="5.95881">
        <ele>516</ele>
        <time>2019-05-10T13:25:20Z</time>
      </trkpt>
      <trkpt lat="43.82014" lon="5.95824">
        <ele>520</ele>
        <time>2019-05-10T13:25:49Z</time>
      </trkpt>
      <trkpt lat="43.82" lon="5.95763">
        <ele>522</ele>
        <time>2019-05-10T13:26:15Z</time>
      </trkpt>
      <trkpt lat="43.81992" lon="5.95702">
        <ele>523</ele>
        <time>2019-05-10T13:26:42Z</time>
      </trkpt>
      <trkpt lat="43.82001" lon="5.95642">
        <ele>527</ele>
        <time>2019-05-10T13:27:10Z</time>
      </trkpt>
      <trkpt lat="43.81997" lon="5.95582">
        <ele>532</ele>
        <time>2019-05-10T13:27:38Z</time>
      </trkpt>
      <trkpt lat="43.8196" lon="5.95548">
        <ele>538</ele>
        <time>2019-05-10T13:28:13Z</time>
      </trkpt>
      <trkpt lat="43.81963" lon="5.95489">
        <ele>542</ele>
        <time>2019-05-10T13:28:46Z</time>
      </trkpt>
      <trkpt lat="43.8196" lon="5.95429">
        <ele>547</ele>
        <time>2019-05-10T13:29:19Z</time>
      </trkpt>
      <trkpt lat="43.81946" lon="5.95369">
        <ele>553</ele>
        <time>2019-05-10T13:29:51Z</time>
      </trkpt>
      <trkpt lat="43.81941" lon="5.95305">
        <ele>553</ele>
        <time>2019-05-10T13:30:10Z</time>
      </trkpt>
      <trkpt lat="43.81934" lon="5.95242">
        <ele>552</ele>
        <time>2019-05-10T13:30:26Z</time>
      </trkpt>
      <trkpt lat="43.81941" lon="5.95178">
        <ele>553</ele>
        <time>2019-05-10T13:30:44Z</time>
      </trkpt>
      <trkpt lat="43.81938" lon="5.95117">
        <ele>553</ele>
        <time>2019-05-10T13:31:04Z</time>
      </trkpt>
      <trkpt lat="43.81922" lon="5.95056">
        <ele>553</ele>
        <time>2019-05-10T13:31:16Z</time>
      </trkpt>
      <trkpt lat="43.81914" lon="5.94992">
        <ele>553</ele>
        <time>2019-05-10T13:31:30Z</time>
      </trkpt>
      <trkpt lat="43.81904" lon="5.94927">
        <ele>553</ele>
        <time>2019-05-10T13:31:43Z</time>
      </trkpt>
      <trkpt lat="43.81892" lon="5.94863">
        <ele>553</ele>
        <time>2019-05-10T13:31:57Z</time>
      </trkpt>
      <trkpt lat="43.81876" lon="5.94799">
        <ele>550</ele>
        <time>2019-05-10T13:32:11Z</time>
      </trkpt>
      <trkpt lat="43.81858" lon="5.94739">
        <ele>549</ele>
        <time>2019-05-10T13:32:21Z</time>
      </trkpt>
      <trkpt lat="43.81831" lon="5.94682">
        <ele>547</ele>
        <time>2019-05-10T13:32:32Z</time>
      </trkpt>
      <trkpt lat="43.818" lon="5.94633">
        <ele>546</ele>
        <time>2019-05-10T13:32:44Z</time>
      </trkpt>
      <trkpt lat="43.81765" lon="5.94581">
        <ele>545</ele>
        <time>2019-05-10T13:32:53Z</time>
      </trkpt>
      <trkpt lat="43.81734" lon="5.94529">
        <ele>544</ele>
        <time>2019-05-10T13:33:01Z</time>
      </trkpt>
      <trkpt lat="43.81703" lon="5.94479">
        <ele>543</ele>
        <time>2019-05-10T13:33:12Z</time>
      </trkpt>
      <trkpt lat="43.81669" lon="5.94438">
        <ele>541</ele>
        <time>2019-05-10T13:33:20Z</time>
      </trkpt>
      <trkpt lat="43.81635" lon="5.94388">
        <ele>539</ele>
        <time>2019-05-10T13:33:28Z</time>
      </trkpt>
      <trkpt lat="43.81611" lon="5.94336">
        <ele>538</ele>
        <time>2019-05-10T13:33:39Z</time>
      </trkpt>
      <trkpt lat="43.81574" lon="5.94297">
        <ele>535</ele>
        <time>2019-05-10T13:33:50Z</time>
      </trkpt>
      <trkpt lat="43.81527" lon="5.94271">
        <ele>530</ele>
        <time>2019-05-10T13:33:59Z</time>
      </trkpt>
      <trkpt lat="43.81522" lon="5.9421">
        <ele>526</ele>
        <time>2019-05-10T13:34:06Z</time>
      </trkpt>
      <trkpt lat="43.81533" lon="5.9415">
        <ele>522</ele>
        <time>2019-05-10T13:34:15Z</time>
      </trkpt>
      <trkpt lat="43.81518" lon="5.94089">
        <ele>517</ele>
        <time>2019-05-10T13:34:25Z</time>
      </trkpt>
      <trkpt lat="43.81486" lon="5.94035">
        <ele>513</ele>
        <time>2019-05-10T13:34:34Z</time>
      </trkpt>
      <trkpt lat="43.81451" lon="5.93982">
        <ele>508</ele>
        <time>2019-05-10T13:34:43Z</time>
      </trkpt>
      <trkpt lat="43.81434" lon="5.93925">
        <ele>502</ele>
        <time>2019-05-10T13:34:54Z</time>
      </trkpt>
      <trkpt lat="43.81419" lon="5.93865">
        <ele>499</ele>
        <time>2019-05-10T13:35:03Z</time>
      </trkpt>
      <trkpt lat="43.81421" lon="5.93803">
        <ele>491</ele>
        <time>2019-05-10T13:35:13Z</time>
      </trkpt>
      <trkpt lat="43.8141" lon="5.93744">
        <ele>481</ele>
        <time>2019-05-10T13:36:20Z</time>
      </trkpt>
      <trkpt lat="43.81384" lon="5.93684">
        <ele>479</ele>
        <time>2019-05-10T13:36:31Z</time>
      </trkpt>
      <trkpt lat="43.81334" lon="5.93656">
        <ele>477</ele>
        <time>2019-05-10T13:36:38Z</time>
      </trkpt>
      <trkpt lat="43.81288" lon="5.93639">
        <ele>474</ele>
        <time>2019-05-10T13:36:44Z</time>
      </trkpt>
      <trkpt lat="43.81242" lon="5.93645">
        <ele>471</ele>
        <time>2019-05-10T13:36:51Z</time>
      </trkpt>
      <trkpt lat="43.81198" lon="5.93657">
        <ele>470</ele>
        <time>2019-05-10T13:37:00Z</time>
      </trkpt>
      <trkpt lat="43.81156" lon="5.93679">
        <ele>469</ele>
        <time>2019-05-10T13:37:14Z</time>
      </trkpt>
      <trkpt lat="43.81111" lon="5.93695">
        <ele>469</ele>
        <time>2019-05-10T13:37:26Z</time>
      </trkpt>
      <trkpt lat="43.81069" lon="5.93719">
        <ele>469</ele>
        <time>2019-05-10T13:37:42Z</time>
      </trkpt>
      <trkpt lat="43.8102" lon="5.93716">
        <ele>470</ele>
        <time>2019-05-10T13:38:01Z</time>
      </trkpt>
      <trkpt lat="43.80982" lon="5.93684">
        <ele>471</ele>
        <time>2019-05-10T13:38:19Z</time>
      </trkpt>
      <trkpt lat="43.80946" lon="5.93639">
        <ele>472</ele>
        <time>2019-05-10T13:38:34Z</time>
      </trkpt>
      <trkpt lat="43.80907" lon="5.93601">
        <ele>470</ele>
        <time>2019-05-10T13:38:48Z</time>
      </trkpt>
      <trkpt lat="43.80871" lon="5.93556">
        <ele>470</ele>
        <time>2019-05-10T13:39:01Z</time>
      </trkpt>
      <trkpt lat="43.80837" lon="5.93502">
        <ele>468</ele>
        <time>2019-05-10T13:39:09Z</time>
      </trkpt>
      <trkpt lat="43.80795" lon="5.93461">
        <ele>465</ele>
        <time>2019-05-10T13:39:17Z</time>
      </trkpt>
      <trkpt lat="43.80755" lon="5.93432">
        <ele>461</ele>
        <time>2019-05-10T13:39:25Z</time>
      </trkpt>
      <trkpt lat="43.80709" lon="5.9341">
        <ele>460</ele>
        <time>2019-05-10T13:39:37Z</time>
      </trkpt>
      <trkpt lat="43.80661" lon="5.93388">
        <ele>458</ele>
        <time>2019-05-10T13:39:46Z</time>
      </trkpt>
      <trkpt lat="43.80618" lon="5.9337">
        <ele>455</ele>
        <time>2019-05-10T13:39:53Z</time>
      </trkpt>
      <trkpt lat="43.80579" lon="5.93333">
        <ele>453</ele>
        <time>2019-05-10T13:40:03Z</time>
      </trkpt>
      <trkpt lat="43.80538" lon="5.93299">
        <ele>452</ele>
        <time>2019-05-10T13:40:17Z</time>
      </trkpt>
      <trkpt lat="43.805" lon="5.93256">
        <ele>451</ele>
        <time>2019-05-10T13:40:27Z</time>
      </trkpt>
      <trkpt lat="43.80461" lon="5.93223">
        <ele>447</ele>
        <time>2019-05-10T13:40:38Z</time>
      </trkpt>
      <trkpt lat="43.80421" lon="5.9318">
        <ele>444</ele>
        <time>2019-05-10T13:40:46Z</time>
      </trkpt>
      <trkpt lat="43.80384" lon="5.93136">
        <ele>440</ele>
        <time>2019-05-10T13:40:53Z</time>
      </trkpt>
      <trkpt lat="43.80348" lon="5.93096">
        <ele>438</ele>
        <time>2019-05-10T13:41:01Z</time>
      </trkpt>
      <trkpt lat="43.80312" lon="5.93064">
        <ele>437</ele>
        <time>2019-05-10T13:41:21Z</time>
      </trkpt>
      <trkpt lat="43.80262" lon="5.93076">
        <ele>437</ele>
        <time>2019-05-10T13:41:33Z</time>
      </trkpt>
      <trkpt lat="43.80222" lon="5.93067">
        <ele>434</ele>
        <time>2019-05-10T13:41:43Z</time>
      </trkpt>
      <trkpt lat="43.80185" lon="5.93025">
        <ele>432</ele>
        <time>2019-05-10T13:41:54Z</time>
      </trkpt>
      <trkpt lat="43.80169" lon="5.92965">
        <ele>431</ele>
        <time>2019-05-10T13:42:06Z</time>
      </trkpt>
      <trkpt lat="43.80141" lon="5.92914">
        <ele>430</ele>
        <time>2019-05-10T13:42:19Z</time>
      </trkpt>
      <trkpt lat="43.80098" lon="5.92889">
        <ele>428</ele>
        <time>2019-05-10T13:42:34Z</time>
      </trkpt>
      <trkpt lat="43.80053" lon="5.92867">
        <ele>428</ele>
        <time>2019-05-10T13:42:46Z</time>
      </trkpt>
      <trkpt lat="43.80008" lon="5.92844">
        <ele>426</ele>
        <time>2019-05-10T13:43:01Z</time>
      </trkpt>
      <trkpt lat="43.79964" lon="5.92819">
        <ele>425</ele>
        <time>2019-05-10T13:43:14Z</time>
      </trkpt>
      <trkpt lat="43.79921" lon="5.92796">
        <ele>423</ele>
        <time>2019-05-10T13:43:27Z</time>
      </trkpt>
      <trkpt lat="43.79874" lon="5.92802">
        <ele>422</ele>
        <time>2019-05-10T13:43:41Z</time>
      </trkpt>
      <trkpt lat="43.79827" lon="5.92812">
        <ele>421</ele>
        <time>2019-05-10T13:43:54Z</time>
      </trkpt>
      <trkpt lat="43.7978" lon="5.92823">
        <ele>420</ele>
        <time>2019-05-10T13:44:09Z</time>
      </trkpt>
      <trkpt lat="43.79728" lon="5.92816">
        <ele>418</ele>
        <time>2019-05-10T13:44:20Z</time>
      </trkpt>
      <trkpt lat="43.79683" lon="5.92836">
        <ele>418</ele>
        <time>2019-05-10T13:44:31Z</time>
      </trkpt>
      <trkpt lat="43.79646" lon="5.92872">
        <ele>416</ele>
        <time>2019-05-10T13:44:46Z</time>
      </trkpt>
      <trkpt lat="43.79608" lon="5.92908">
        <ele>415</ele>
        <time>2019-05-10T13:44:55Z</time>
      </trkpt>
      <trkpt lat="43.79576" lon="5.92962">
        <ele>413</ele>
        <time>2019-05-10T13:45:04Z</time>
      </trkpt>
      <trkpt lat="43.79546" lon="5.93019">
        <ele>411</ele>
        <time>2019-05-10T13:45:14Z</time>
      </trkpt>
      <trkpt lat="43.79535" lon="5.93083">
        <ele>410</ele>
        <time>2019-05-10T13:45:26Z</time>
      </trkpt>
      <trkpt lat="43.79531" lon="5.93146">
        <ele>409</ele>
        <time>2019-05-10T13:45:38Z</time>
      </trkpt>
      <trkpt lat="43.79507" lon="5.93204">
        <ele>407</ele>
        <time>2019-05-10T13:45:49Z</time>
      </trkpt>
      <trkpt lat="43.79483" lon="5.9323">
        <ele>407</ele>
        <time>2019-05-10T13:46:51Z</time>
      </trkpt>
      <trkpt lat="43.79443" lon="5.93191">
        <ele>407</ele>
        <time>2019-05-10T13:47:04Z</time>
      </trkpt>
      <trkpt lat="43.79406" lon="5.93145">
        <ele>406</ele>
        <time>2019-05-10T13:47:16Z</time>
      </trkpt>
      <trkpt lat="43.79372" lon="5.93101">
        <ele>405</ele>
        <time>2019-05-10T13:47:27Z</time>
      </trkpt>
      <trkpt lat="43.79337" lon="5.93058">
        <ele>403</ele>
        <time>2019-05-10T13:47:38Z</time>
      </trkpt>
      <trkpt lat="43.79301" lon="5.93009">
        <ele>402</ele>
        <time>2019-05-10T13:47:48Z</time>
      </trkpt>
      <trkpt lat="43.79269" lon="5.92961">
        <ele>401</ele>
        <time>2019-05-10T13:47:57Z</time>
      </trkpt>
      <trkpt lat="43.79247" lon="5.92902">
        <ele>400</ele>
        <time>2019-05-10T13:48:09Z</time>
      </trkpt>
      <trkpt lat="43.79227" lon="5.92841">
        <ele>399</ele>
        <time>2019-05-10T13:48:21Z</time>
      </trkpt>
      <trkpt lat="43.79213" lon="5.92777">
        <ele>399</ele>
        <time>2019-05-10T13:48:33Z</time>
      </trkpt>
      <trkpt lat="43.79205" lon="5.92717">
        <ele>399</ele>
        <time>2019-05-10T13:48:46Z</time>
      </trkpt>
      <trkpt lat="43.79202" lon="5.92651">
        <ele>399</ele>
        <time>2019-05-10T13:49:01Z</time>
      </trkpt>
      <trkpt lat="43.79202" lon="5.92586">
        <ele>400</ele>
        <time>2019-05-10T13:49:16Z</time>
      </trkpt>
      <trkpt lat="43.79203" lon="5.9252">
        <ele>400</ele>
        <time>2019-05-10T13:49:29Z</time>
      </trkpt>
      <trkpt lat="43.79203" lon="5.92456">
        <ele>399</ele>
        <time>2019-05-10T13:49:39Z</time>
      </trkpt>
      <trkpt lat="43.79203" lon="5.92386">
        <ele>398</ele>
        <time>2019-05-10T13:49:49Z</time>
      </trkpt>
      <trkpt lat="43.79202" lon="5.92323">
        <ele>397</ele>
        <time>2019-05-10T13:49:57Z</time>
      </trkpt>
      <trkpt lat="43.79197" lon="5.92257">
        <ele>397</ele>
        <time>2019-05-10T13:50:06Z</time>
      </trkpt>
      <trkpt lat="43.79189" lon="5.92193">
        <ele>396</ele>
        <time>2019-05-10T13:50:15Z</time>
      </trkpt>
      <trkpt lat="43.79182" lon="5.92128">
        <ele>395</ele>
        <time>2019-05-10T13:50:23Z</time>
      </trkpt>
      <trkpt lat="43.79175" lon="5.92063">
        <ele>393</ele>
        <time>2019-05-10T13:50:30Z</time>
      </trkpt>
      <trkpt lat="43.79164" lon="5.91999">
        <ele>391</ele>
        <time>2019-05-10T13:50:38Z</time>
      </trkpt>
      <trkpt lat="43.79147" lon="5.91939">
        <ele>390</ele>
        <time>2019-05-10T13:50:48Z</time>
      </trkpt>
      <trkpt lat="43.79126" lon="5.91879">
        <ele>389</ele>
        <time>2019-05-10T13:50:57Z</time>
      </trkpt>
      <trkpt lat="43.79105" lon="5.91824">
        <ele>389</ele>
        <time>2019-05-10T13:51:05Z</time>
      </trkpt>
      <trkpt lat="43.79081" lon="5.91766">
        <ele>389</ele>
        <time>2019-05-10T13:51:14Z</time>
      </trkpt>
      <trkpt lat="43.79055" lon="5.91712">
        <ele>388</ele>
        <time>2019-05-10T13:51:24Z</time>
      </trkpt>
      <trkpt lat="43.79024" lon="5.91664">
        <ele>387</ele>
        <time>2019-05-10T13:51:32Z</time>
      </trkpt>
      <trkpt lat="43.78987" lon="5.91623">
        <ele>387</ele>
        <time>2019-05-10T13:51:40Z</time>
      </trkpt>
      <trkpt lat="43.78944" lon="5.91596">
        <ele>386</ele>
        <time>2019-05-10T13:51:50Z</time>
      </trkpt>
      <trkpt lat="43.789" lon="5.9158">
        <ele>387</ele>
        <time>2019-05-10T13:52:02Z</time>
      </trkpt>
      <trkpt lat="43.78853" lon="5.91568">
        <ele>388</ele>
        <time>2019-05-10T13:52:15Z</time>
      </trkpt>
      <trkpt lat="43.78808" lon="5.91549">
        <ele>389</ele>
        <time>2019-05-10T13:52:26Z</time>
      </trkpt>
      <trkpt lat="43.78763" lon="5.91524">
        <ele>388</ele>
        <time>2019-05-10T13:52:36Z</time>
      </trkpt>
      <trkpt lat="43.78718" lon="5.91499">
        <ele>387</ele>
        <time>2019-05-10T13:52:45Z</time>
      </trkpt>
      <trkpt lat="43.78674" lon="5.91476">
        <ele>386</ele>
        <time>2019-05-10T13:52:53Z</time>
      </trkpt>
      <trkpt lat="43.78628" lon="5.9145">
        <ele>385</ele>
        <time>2019-05-10T13:53:01Z</time>
      </trkpt>
      <trkpt lat="43.78585" lon="5.9142">
        <ele>384</ele>
        <time>2019-05-10T13:53:07Z</time>
      </trkpt>
      <trkpt lat="43.78538" lon="5.9139">
        <ele>381</ele>
        <time>2019-05-10T13:53:13Z</time>
      </trkpt>
      <trkpt lat="43.78492" lon="5.91363">
        <ele>378</ele>
        <time>2019-05-10T13:53:20Z</time>
      </trkpt>
      <trkpt lat="43.78458" lon="5.91407">
        <ele>376</ele>
        <time>2019-05-10T13:53:30Z</time>
      </trkpt>
      <trkpt lat="43.7844" lon="5.9147">
        <ele>374</ele>
        <time>2019-05-10T13:53:44Z</time>
      </trkpt>
      <trkpt lat="43.78422" lon="5.9153">
        <ele>374</ele>
        <time>2019-05-10T13:53:56Z</time>
      </trkpt>
      <trkpt lat="43.784" lon="5.91584">
        <ele>374</ele>
        <time>2019-05-10T13:54:11Z</time>
      </trkpt>
      <trkpt lat="43.78367" lon="5.91615">
        <ele>378</ele>
        <time>2019-05-10T13:54:33Z</time>
      </trkpt>
      <trkpt lat="43.78324" lon="5.91584">
        <ele>379</ele>
        <time>2019-05-10T13:54:50Z</time>
      </trkpt>
      <trkpt lat="43.78278" lon="5.91553">
        <ele>378</ele>
        <time>2019-05-10T13:55:09Z</time>
      </trkpt>
      <trkpt lat="43.78236" lon="5.9152">
        <ele>381</ele>
        <time>2019-05-10T13:56:16Z</time>
      </trkpt>
      <trkpt lat="43.78221" lon="5.91463">
        <ele>378</ele>
        <time>2019-05-10T13:56:30Z</time>
      </trkpt>
      <trkpt lat="43.78181" lon="5.91429">
        <ele>374</ele>
        <time>2019-05-10T13:57:33Z</time>
      </trkpt>
      <trkpt lat="43.78137" lon="5.91395">
        <ele>370</ele>
        <time>2019-05-10T13:57:45Z</time>
      </trkpt>
      <trkpt lat="43.78097" lon="5.91365">
        <ele>368</ele>
        <time>2019-05-10T13:57:58Z</time>
      </trkpt>
      <trkpt lat="43.78058" lon="5.91333">
        <ele>368</ele>
        <time>2019-05-10T13:58:23Z</time>
      </trkpt>
      <trkpt lat="43.7802" lon="5.91296">
        <ele>368</ele>
        <time>2019-05-10T13:58:39Z</time>
      </trkpt>
      <trkpt lat="43.77981" lon="5.91259">
        <ele>367</ele>
        <time>2019-05-10T13:58:51Z</time>
      </trkpt>
      <trkpt lat="43.77944" lon="5.9122">
        <ele>366</ele>
        <time>2019-05-10T13:59:03Z</time>
      </trkpt>
      <trkpt lat="43.77906" lon="5.91184">
        <ele>365</ele>
        <time>2019-05-10T13:59:16Z</time>
      </trkpt>
      <trkpt lat="43.77869" lon="5.91146">
        <ele>365</ele>
        <time>2019-05-10T13:59:34Z</time>
      </trkpt>
      <trkpt lat="43.77832" lon="5.91111">
        <ele>370</ele>
        <time>2019-05-10T13:59:57Z</time>
      </trkpt>
      <trkpt lat="43.77792" lon="5.91073">
        <ele>370</ele>
        <time>2019-05-10T14:00:16Z</time>
      </trkpt>
      <trkpt lat="43.7776" lon="5.91022">
        <ele>367</ele>
        <time>2019-05-10T14:00:29Z</time>
      </trkpt>
      <trkpt lat="43.77715" lon="5.90981">
        <ele>362</ele>
        <time>2019-05-10T14:00:47Z</time>
      </trkpt>
      <trkpt lat="43.77672" lon="5.90933">
        <ele>361</ele>
        <time>2019-05-10T14:01:12Z</time>
      </trkpt>
      <trkpt lat="43.7763" lon="5.90892">
        <ele>362</ele>
        <time>2019-05-10T14:01:33Z</time>
      </trkpt>
      <trkpt lat="43.77591" lon="5.90845">
        <ele>362</ele>
        <time>2019-05-10T14:01:51Z</time>
      </trkpt>
      <trkpt lat="43.77551" lon="5.90798">
        <ele>362</ele>
        <time>2019-05-10T14:02:09Z</time>
      </trkpt>
      <trkpt lat="43.77516" lon="5.90752">
        <ele>362</ele>
        <time>2019-05-10T14:02:25Z</time>
      </trkpt>
      <trkpt lat="43.77477" lon="5.90704">
        <ele>363</ele>
        <time>2019-05-10T14:02:44Z</time>
      </trkpt>
      <trkpt lat="43.77442" lon="5.90655">
        <ele>365</ele>
        <time>2019-05-10T14:03:00Z</time>
      </trkpt>
      <trkpt lat="43.77416" lon="5.9059">
        <ele>366</ele>
        <time>2019-05-10T14:03:21Z</time>
      </trkpt>
      <trkpt lat="43.77385" lon="5.90536">
        <ele>367</ele>
        <time>2019-05-10T14:03:40Z</time>
      </trkpt>
      <trkpt lat="43.77356" lon="5.90477">
        <ele>366</ele>
        <time>2019-05-10T14:03:54Z</time>
      </trkpt>
      <trkpt lat="43.77335" lon="5.90415">
        <ele>365</ele>
        <time>2019-05-10T14:04:04Z</time>
      </trkpt>
      <trkpt lat="43.77323" lon="5.90353">
        <ele>363</ele>
        <time>2019-05-10T14:04:14Z</time>
      </trkpt>
      <trkpt lat="43.77321" lon="5.90292">
        <ele>359</ele>
        <time>2019-05-10T14:04:30Z</time>
      </trkpt>
      <trkpt lat="43.7727" lon="5.90292">
        <ele>355</ele>
        <time>2019-05-10T14:04:43Z</time>
      </trkpt>
      <trkpt lat="43.77219" lon="5.90285">
        <ele>353</ele>
        <time>2019-05-10T14:04:55Z</time>
      </trkpt>
      <trkpt lat="43.77174" lon="5.9026">
        <ele>353</ele>
        <time>2019-05-10T14:05:11Z</time>
      </trkpt>
      <trkpt lat="43.77136" lon="5.90219">
        <ele>353</ele>
        <time>2019-05-10T14:05:26Z</time>
      </trkpt>
      <trkpt lat="43.77108" lon="5.90167">
        <ele>351</ele>
        <time>2019-05-10T14:05:39Z</time>
      </trkpt>
      <trkpt lat="43.77083" lon="5.90108">
        <ele>351</ele>
        <time>2019-05-10T14:05:55Z</time>
      </trkpt>
      <trkpt lat="43.77039" lon="5.90073">
        <ele>351</ele>
        <time>2019-05-10T14:06:10Z</time>
      </trkpt>
      <trkpt lat="43.76994" lon="5.90049">
        <ele>350</ele>
        <time>2019-05-10T14:06:24Z</time>
      </trkpt>
      <trkpt lat="43.76952" lon="5.90016">
        <ele>351</ele>
        <time>2019-05-10T14:06:42Z</time>
      </trkpt>
      <trkpt lat="43.76903" lon="5.89992">
        <ele>351</ele>
        <time>2019-05-10T14:06:59Z</time>
      </trkpt>
      <trkpt lat="43.76848" lon="5.89949">
        <ele>351</ele>
        <time>2019-05-10T14:07:19Z</time>
      </trkpt>
      <trkpt lat="43.76833" lon="5.89882">
        <ele>345</ele>
        <time>2019-05-10T14:08:11Z</time>
      </trkpt>
      <trkpt lat="43.76862" lon="5.89835">
        <ele>341</ele>
        <time>2019-05-10T14:08:25Z</time>
      </trkpt>
      <trkpt lat="43.76868" lon="5.89767">
        <ele>339</ele>
        <time>2019-05-10T14:08:38Z</time>
      </trkpt>
      <trkpt lat="43.76852" lon="5.89704">
        <ele>338</ele>
        <time>2019-05-10T14:08:53Z</time>
      </trkpt>
      <trkpt lat="43.76824" lon="5.89666">
        <ele>338</ele>
        <time>2019-05-10T14:09:14Z</time>
      </trkpt>
      <trkpt lat="43.76785" lon="5.89715">
        <ele>338</ele>
        <time>2019-05-10T14:09:34Z</time>
      </trkpt>
      <trkpt lat="43.76765" lon="5.89777">
        <ele>340</ele>
        <time>2019-05-10T14:09:53Z</time>
      </trkpt>
      <trkpt lat="43.76754" lon="5.89816">
        <ele>343</ele>
        <time>2019-05-10T14:11:19Z</time>
      </trkpt>
      <trkpt lat="43.76714" lon="5.89815">
        <ele>344</ele>
        <time>2019-05-10T14:11:42Z</time>
      </trkpt>
      <trkpt lat="43.7668" lon="5.8977">
        <ele>346</ele>
        <time>2019-05-10T14:12:00Z</time>
      </trkpt>
      <trkpt lat="43.76642" lon="5.89767">
        <ele>348</ele>
        <time>2019-05-10T14:12:22Z</time>
      </trkpt>
      <trkpt lat="43.76603" lon="5.89809">
        <ele>356</ele>
        <time>2019-05-10T14:12:51Z</time>
      </trkpt>
      <trkpt lat="43.76569" lon="5.89853">
        <ele>359</ele>
        <time>2019-05-10T14:13:13Z</time>
      </trkpt>
      <trkpt lat="43.7654" lon="5.89906">
        <ele>360</ele>
        <time>2019-05-10T14:13:32Z</time>
      </trkpt>
      <trkpt lat="43.76504" lon="5.89939">
        <ele>361</ele>
        <time>2019-05-10T14:13:51Z</time>
      </trkpt>
      <trkpt lat="43.76457" lon="5.89938">
        <ele>366</ele>
        <time>2019-05-10T14:14:14Z</time>
      </trkpt>
      <trkpt lat="43.76409" lon="5.89929">
        <ele>368</ele>
        <time>2019-05-10T14:14:32Z</time>
      </trkpt>
      <trkpt lat="43.76362" lon="5.89917">
        <ele>367</ele>
        <time>2019-05-10T14:14:42Z</time>
      </trkpt>
      <trkpt lat="43.76318" lon="5.89904">
        <ele>364</ele>
        <time>2019-05-10T14:14:52Z</time>
      </trkpt>
      <trkpt lat="43.7627" lon="5.89895">
        <ele>360</ele>
        <time>2019-05-10T14:15:04Z</time>
      </trkpt>
      <trkpt lat="43.76226" lon="5.89881">
        <ele>356</ele>
        <time>2019-05-10T14:15:14Z</time>
      </trkpt>
      <trkpt lat="43.76181" lon="5.89894">
        <ele>353</ele>
        <time>2019-05-10T14:15:22Z</time>
      </trkpt>
      <trkpt lat="43.76135" lon="5.89913">
        <ele>350</ele>
        <time>2019-05-10T14:15:30Z</time>
      </trkpt>
      <trkpt lat="43.76086" lon="5.89924">
        <ele>348</ele>
        <time>2019-05-10T14:15:38Z</time>
      </trkpt>
      <trkpt lat="43.76072" lon="5.89966">
        <ele>346</ele>
        <time>2019-05-10T14:16:25Z</time>
      </trkpt>
      <trkpt lat="43.76084" lon="5.90037">
        <ele>351</ele>
        <time>2019-05-10T14:17:15Z</time>
      </trkpt>
      <trkpt lat="43.76081" lon="5.90099">
        <ele>356</ele>
        <time>2019-05-10T14:17:38Z</time>
      </trkpt>
      <trkpt lat="43.76074" lon="5.90159">
        <ele>362</ele>
        <time>2019-05-10T14:17:59Z</time>
      </trkpt>
      <trkpt lat="43.76045" lon="5.90191">
        <ele>361</ele>
        <time>2019-05-10T14:18:17Z</time>
      </trkpt>
      <trkpt lat="43.75995" lon="5.90198">
        <ele>357</ele>
        <time>2019-05-10T14:18:27Z</time>
      </trkpt>
      <trkpt lat="43.75945" lon="5.90203">
        <ele>353</ele>
        <time>2019-05-10T14:18:34Z</time>
      </trkpt>
      <trkpt lat="43.75894" lon="5.9021">
        <ele>349</ele>
        <time>2019-05-10T14:18:40Z</time>
      </trkpt>
      <trkpt lat="43.7585" lon="5.9022">
        <ele>344</ele>
        <time>2019-05-10T14:18:48Z</time>
      </trkpt>
      <trkpt lat="43.7582" lon="5.9024">
        <ele>339</ele>
        <time>2019-05-10T14:19:15Z</time>
      </trkpt>
      <trkpt lat="43.75805" lon="5.90304">
        <ele>338</ele>
        <time>2019-05-10T14:19:25Z</time>
      </trkpt>
      <trkpt lat="43.75799" lon="5.90371">
        <ele>337</ele>
        <time>2019-05-10T14:19:33Z</time>
      </trkpt>
      <trkpt lat="43.75762" lon="5.90406">
        <ele>334</ele>
        <time>2019-05-10T14:19:43Z</time>
      </trkpt>
      <trkpt lat="43.7578" lon="5.90394">
        <ele>332</ele>
        <time>2019-05-10T14:20:01Z</time>
      </trkpt>
      <trkpt lat="43.75797" lon="5.90425">
        <ele>335</ele>
        <time>2019-05-10T14:20:23Z</time>
      </trkpt>
      <trkpt lat="43.75794" lon="5.90492">
        <ele>334</ele>
        <time>2019-05-10T14:20:32Z</time>
      </trkpt>
      <trkpt lat="43.7579" lon="5.9056">
        <ele>332</ele>
        <time>2019-05-10T14:20:40Z</time>
      </trkpt>
      <trkpt lat="43.75779" lon="5.90623">
        <ele>331</ele>
        <time>2019-05-10T14:20:47Z</time>
      </trkpt>
      <trkpt lat="43.75767" lon="5.90684">
        <ele>330</ele>
        <time>2019-05-10T14:20:53Z</time>
      </trkpt>
      <trkpt lat="43.75751" lon="5.90743">
        <ele>326</ele>
        <time>2019-05-10T14:21:06Z</time>
      </trkpt>
      <trkpt lat="43.75743" lon="5.90806">
        <ele>324</ele>
        <time>2019-05-10T14:21:14Z</time>
      </trkpt>
      <trkpt lat="43.75699" lon="5.90835">
        <ele>321</ele>
        <time>2019-05-10T14:21:22Z</time>
      </trkpt>
      <trkpt lat="43.75655" lon="5.90856">
        <ele>318</ele>
        <time>2019-05-10T14:21:30Z</time>
      </trkpt>
      <trkpt lat="43.75607" lon="5.90845">
        <ele>314</ele>
        <time>2019-05-10T14:21:41Z</time>
      </trkpt>
      <trkpt lat="43.75558" lon="5.90819">
        <ele>312</ele>
        <time>2019-05-10T14:21:48Z</time>
      </trkpt>
      <trkpt lat="43.75511" lon="5.90804">
        <ele>309</ele>
        <time>2019-05-10T14:21:54Z</time>
      </trkpt>
      <trkpt lat="43.75465" lon="5.90796">
        <ele>307</ele>
        <time>2019-05-10T14:22:00Z</time>
      </trkpt>
      <trkpt lat="43.75426" lon="5.90771">
        <ele>305</ele>
        <time>2019-05-10T14:22:10Z</time>
      </trkpt>
      <trkpt lat="43.75434" lon="5.90707">
        <ele>303</ele>
        <time>2019-05-10T14:22:25Z</time>
      </trkpt>
      <trkpt lat="43.75437" lon="5.90644">
        <ele>303</ele>
        <time>2019-05-10T14:22:38Z</time>
      </trkpt>
      <trkpt lat="43.75443" lon="5.90581">
        <ele>303</ele>
        <time>2019-05-10T14:22:50Z</time>
      </trkpt>
      <trkpt lat="43.75453" lon="5.90515">
        <ele>303</ele>
        <time>2019-05-10T14:23:01Z</time>
      </trkpt>
      <trkpt lat="43.75446" lon="5.90445">
        <ele>302</ele>
        <time>2019-05-10T14:23:14Z</time>
      </trkpt>
      <trkpt lat="43.75442" lon="5.90379">
        <ele>302</ele>
        <time>2019-05-10T14:23:24Z</time>
      </trkpt>
      <trkpt lat="43.75438" lon="5.90312">
        <ele>301</ele>
        <time>2019-05-10T14:23:36Z</time>
      </trkpt>
      <trkpt lat="43.75429" lon="5.90247">
        <ele>302</ele>
        <time>2019-05-10T14:23:48Z</time>
      </trkpt>
      <trkpt lat="43.75407" lon="5.90179">
        <ele>304</ele>
        <time>2019-05-10T14:24:03Z</time>
      </trkpt>
      <trkpt lat="43.75402" lon="5.90111">
        <ele>304</ele>
        <time>2019-05-10T14:24:14Z</time>
      </trkpt>
      <trkpt lat="43.75392" lon="5.90046">
        <ele>304</ele>
        <time>2019-05-10T14:24:23Z</time>
      </trkpt>
      <trkpt lat="43.75372" lon="5.89983">
        <ele>303</ele>
        <time>2019-05-10T14:24:37Z</time>
      </trkpt>
      <trkpt lat="43.75367" lon="5.89913">
        <ele>303</ele>
        <time>2019-05-10T14:24:46Z</time>
      </trkpt>
      <trkpt lat="43.75363" lon="5.89846">
        <ele>302</ele>
        <time>2019-05-10T14:24:53Z</time>
      </trkpt>
      <trkpt lat="43.75363" lon="5.8978">
        <ele>301</ele>
        <time>2019-05-10T14:25:03Z</time>
      </trkpt>
      <trkpt lat="43.75369" lon="5.89715">
        <ele>301</ele>
        <time>2019-05-10T14:25:16Z</time>
      </trkpt>
      <trkpt lat="43.75373" lon="5.89653">
        <ele>301</ele>
        <time>2019-05-10T14:25:29Z</time>
      </trkpt>
      <trkpt lat="43.75378" lon="5.89587">
        <ele>300</ele>
        <time>2019-05-10T14:25:39Z</time>
      </trkpt>
      <trkpt lat="43.75383" lon="5.89521">
        <ele>299</ele>
        <time>2019-05-10T14:25:50Z</time>
      </trkpt>
      <trkpt lat="43.7539" lon="5.89457">
        <ele>300</ele>
        <time>2019-05-10T14:26:01Z</time>
      </trkpt>
      <trkpt lat="43.75393" lon="5.89393">
        <ele>300</ele>
        <time>2019-05-10T14:26:13Z</time>
      </trkpt>
      <trkpt lat="43.754" lon="5.89326">
        <ele>299</ele>
        <time>2019-05-10T14:26:24Z</time>
      </trkpt>
      <trkpt lat="43.75396" lon="5.89261">
        <ele>299</ele>
        <time>2019-05-10T14:26:33Z</time>
      </trkpt>
      <trkpt lat="43.75398" lon="5.89201">
        <ele>300</ele>
        <time>2019-05-10T14:26:53Z</time>
      </trkpt>
      <trkpt lat="43.75407" lon="5.89138">
        <ele>299</ele>
        <time>2019-05-10T14:27:06Z</time>
      </trkpt>
      <trkpt lat="43.75435" lon="5.89088">
        <ele>299</ele>
        <time>2019-05-10T14:27:20Z</time>
      </trkpt>
      <trkpt lat="43.75428" lon="5.89024">
        <ele>299</ele>
        <time>2019-05-10T14:27:39Z</time>
      </trkpt>
      <trkpt lat="43.75398" lon="5.88989">
        <ele>309</ele>
        <time>2019-05-10T14:28:21Z</time>
      </trkpt>
      <trkpt lat="43.75349" lon="5.88996">
        <ele>309</ele>
        <time>2019-05-10T14:28:32Z</time>
      </trkpt>
      <trkpt lat="43.75324" lon="5.89036">
        <ele>308</ele>
        <time>2019-05-10T14:28:45Z</time>
      </trkpt>
      <trkpt lat="43.75316" lon="5.89097">
        <ele>308</ele>
        <time>2019-05-10T14:28:55Z</time>
      </trkpt>
      <trkpt lat="43.75306" lon="5.89169">
        <ele>306</ele>
        <time>2019-05-10T14:29:02Z</time>
      </trkpt>
      <trkpt lat="43.75291" lon="5.89235">
        <ele>304</ele>
        <time>2019-05-10T14:29:10Z</time>
      </trkpt>
      <trkpt lat="43.75259" lon="5.89289">
        <ele>304</ele>
        <time>2019-05-10T14:29:18Z</time>
      </trkpt>
      <trkpt lat="43.75226" lon="5.89338">
        <ele>304</ele>
        <time>2019-05-10T14:29:27Z</time>
      </trkpt>
      <trkpt lat="43.75193" lon="5.89381">
        <ele>303</ele>
        <time>2019-05-10T14:29:37Z</time>
      </trkpt>
      <trkpt lat="43.75189" lon="5.89439">
        <ele>301</ele>
        <time>2019-05-10T14:29:47Z</time>
      </trkpt>
      <trkpt lat="43.75169" lon="5.89482">
        <ele>300</ele>
        <time>2019-05-10T14:30:03Z</time>
      </trkpt>
      <trkpt lat="43.7514" lon="5.89525">
        <ele>301</ele>
        <time>2019-05-10T14:30:16Z</time>
      </trkpt>
      <trkpt lat="43.75148" lon="5.89593">
        <ele>301</ele>
        <time>2019-05-10T14:30:27Z</time>
      </trkpt>
      <trkpt lat="43.75151" lon="5.89656">
        <ele>302</ele>
        <time>2019-05-10T14:30:42Z</time>
      </trkpt>
      <trkpt lat="43.7511" lon="5.89676">
        <ele>301</ele>
        <time>2019-05-10T14:30:57Z</time>
      </trkpt>
      <trkpt lat="43.75115" lon="5.89743">
        <ele>302</ele>
        <time>2019-05-10T14:31:10Z</time>
      </trkpt>
      <trkpt lat="43.75108" lon="5.89756">
        <ele>302</ele>
        <time>2019-05-10T14:31:32Z</time>
      </trkpt>
      <trkpt lat="43.75126" lon="5.89855">
        <ele>302</ele>
        <time>2019-05-10T14:43:11Z</time>
      </trkpt>
    </trkseg>
  </trk>
</gpx>